<?xml version="1.0" encoding="UTF-8" standalone="no" ?>
<gpx xmlns="http://www.topografix.com/GPX/1/1" xmlns:xsi="http://www.w3.org/2001/XMLSchema-instance" xsi:schemaLocation="http://www.topografix.com/GPX/1/1 http://www.topografix.com/GPX/1/1/gpx.xsd" version="1.1" creator="VisuGPX - https://www.visugpx.com">
  <metadata>
    <name>Le chateau de Palteau</name>
    <desc><![CDATA[Prépa séjour]]></desc>
  </metadata>
  <wpt lat="48.04555" lon="3.32494">
    <ele>79.2</ele>
  </wpt>
  <wpt lat="48.04357" lon="3.34534">
    <ele>100.7</ele>
  </wpt>
  <wpt lat="48.04936" lon="3.34825">
    <ele>179.6</ele>
  </wpt>
  <wpt lat="48.05298" lon="3.34204">
    <ele>186.3</ele>
  </wpt>
  <wpt lat="48.05407" lon="3.34399">
    <ele>186.5</ele>
  </wpt>
  <wpt lat="48.05564" lon="3.33686">
    <ele>177.1</ele>
  </wpt>
  <wpt lat="48.05147" lon="3.33302">
    <ele>174.3</ele>
  </wpt>
  <wpt lat="48.05939" lon="3.33053">
    <ele>168.7</ele>
  </wpt>
  <wpt lat="48.06171" lon="3.32572">
    <ele>155.5</ele>
  </wpt>
  <wpt lat="48.0525" lon="3.31919">
    <ele>104.2</ele>
  </wpt>
  <wpt lat="48.04685" lon="3.32003">
    <ele>76.1</ele>
  </wpt>
  <trk>
    <name><![CDATA[randogps89-76]]></name>
    <trkseg>
      <trkpt lat="48.04537" lon="3.32012">
        <ele>73</ele>
        <time>2019-05-12T06:48:14Z</time>
      </trkpt>
      <trkpt lat="48.0453" lon="3.32019">
        <ele>73</ele>
        <time>2019-05-12T06:48:15Z</time>
      </trkpt>
      <trkpt lat="48.04513" lon="3.32037">
        <ele>73</ele>
        <time>2019-05-12T06:48:19Z</time>
      </trkpt>
      <trkpt lat="48.0452" lon="3.32052">
        <ele>73</ele>
        <time>2019-05-12T06:48:20Z</time>
      </trkpt>
      <trkpt lat="48.04528" lon="3.3207">
        <ele>73</ele>
        <time>2019-05-12T06:48:43Z</time>
      </trkpt>
      <trkpt lat="48.04537" lon="3.3209">
        <ele>73</ele>
        <time>2019-05-12T06:49:02Z</time>
      </trkpt>
      <trkpt lat="48.04545" lon="3.32109">
        <ele>73</ele>
        <time>2019-05-12T06:49:20Z</time>
      </trkpt>
      <trkpt lat="48.04558" lon="3.32136">
        <ele>73.058594</ele>
        <time>2019-05-12T06:49:41Z</time>
      </trkpt>
      <trkpt lat="48.04539" lon="3.32161">
        <ele>73.214844</ele>
        <time>2019-05-12T06:53:39Z</time>
      </trkpt>
      <trkpt lat="48.04533" lon="3.32172">
        <ele>73.214844</ele>
        <time>2019-05-12T06:53:58Z</time>
      </trkpt>
      <trkpt lat="48.04519" lon="3.32191">
        <ele>73.109375</ele>
        <time>2019-05-12T06:54:16Z</time>
      </trkpt>
      <trkpt lat="48.04525" lon="3.32206">
        <ele>73.441406</ele>
        <time>2019-05-12T06:54:34Z</time>
      </trkpt>
      <trkpt lat="48.04536" lon="3.32233">
        <ele>73.894531</ele>
        <time>2019-05-12T06:54:54Z</time>
      </trkpt>
      <trkpt lat="48.04552" lon="3.32271">
        <ele>74.324219</ele>
        <time>2019-05-12T06:55:18Z</time>
      </trkpt>
      <trkpt lat="48.04565" lon="3.32296">
        <ele>74.839844</ele>
        <time>2019-05-12T06:55:36Z</time>
      </trkpt>
      <trkpt lat="48.04562" lon="3.323">
        <ele>74.867188</ele>
        <time>2019-05-12T06:55:57Z</time>
      </trkpt>
      <trkpt lat="48.0456" lon="3.32311">
        <ele>75.027344</ele>
        <time>2019-05-12T06:56:14Z</time>
      </trkpt>
      <trkpt lat="48.04564" lon="3.32328">
        <ele>75.382812</ele>
        <time>2019-05-12T06:56:36Z</time>
      </trkpt>
      <trkpt lat="48.0457" lon="3.32337">
        <ele>75.660156</ele>
        <time>2019-05-12T06:57:02Z</time>
      </trkpt>
      <trkpt lat="48.04575" lon="3.32342">
        <ele>75.808594</ele>
        <time>2019-05-12T06:57:20Z</time>
      </trkpt>
      <trkpt lat="48.04584" lon="3.32345">
        <ele>75.882812</ele>
        <time>2019-05-12T06:57:41Z</time>
      </trkpt>
      <trkpt lat="48.04585" lon="3.32344">
        <ele>75.867188</ele>
        <time>2019-05-12T06:58:01Z</time>
      </trkpt>
      <trkpt lat="48.04589" lon="3.32356">
        <ele>76</ele>
        <time>2019-05-12T06:58:18Z</time>
      </trkpt>
      <trkpt lat="48.04629" lon="3.32448">
        <ele>76.003906</ele>
        <time>2019-05-12T06:58:41Z</time>
      </trkpt>
      <trkpt lat="48.04558" lon="3.3248">
        <ele>76.628906</ele>
        <time>2019-05-12T06:59:03Z</time>
      </trkpt>
      <trkpt lat="48.04563" lon="3.32493">
        <ele>76.800781</ele>
        <time>2019-05-12T06:59:07Z</time>
      </trkpt>
      <trkpt lat="48.0458" lon="3.32556">
        <ele>77.507812</ele>
        <time>2019-05-12T06:59:26Z</time>
      </trkpt>
      <trkpt lat="48.0459" lon="3.32585">
        <ele>77.992188</ele>
        <time>2019-05-12T06:59:44Z</time>
      </trkpt>
      <trkpt lat="48.04596" lon="3.3261">
        <ele>78.582031</ele>
        <time>2019-05-12T07:00:00Z</time>
      </trkpt>
      <trkpt lat="48.04603" lon="3.32644">
        <ele>79.246094</ele>
        <time>2019-05-12T07:00:15Z</time>
      </trkpt>
      <trkpt lat="48.0461" lon="3.32696">
        <ele>79.792969</ele>
        <time>2019-05-12T07:00:32Z</time>
      </trkpt>
      <trkpt lat="48.04608" lon="3.32704">
        <ele>80.132812</ele>
        <time>2019-05-12T07:00:38Z</time>
      </trkpt>
      <trkpt lat="48.04606" lon="3.32724">
        <ele>80.710938</ele>
        <time>2019-05-12T07:00:42Z</time>
      </trkpt>
      <trkpt lat="48.04603" lon="3.32733">
        <ele>81.070312</ele>
        <time>2019-05-12T07:00:58Z</time>
      </trkpt>
      <trkpt lat="48.04594" lon="3.32784">
        <ele>82.375</ele>
        <time>2019-05-12T07:01:10Z</time>
      </trkpt>
      <trkpt lat="48.04583" lon="3.32831">
        <ele>82.28125</ele>
        <time>2019-05-12T07:01:22Z</time>
      </trkpt>
      <trkpt lat="48.04578" lon="3.32846">
        <ele>82.019531</ele>
        <time>2019-05-12T07:01:32Z</time>
      </trkpt>
      <trkpt lat="48.04576" lon="3.32855">
        <ele>81.84375</ele>
        <time>2019-05-12T07:01:40Z</time>
      </trkpt>
      <trkpt lat="48.0457" lon="3.32877">
        <ele>81.996094</ele>
        <time>2019-05-12T07:01:42Z</time>
      </trkpt>
      <trkpt lat="48.0456" lon="3.32914">
        <ele>82.828125</ele>
        <time>2019-05-12T07:01:55Z</time>
      </trkpt>
      <trkpt lat="48.04552" lon="3.32943">
        <ele>83.566406</ele>
        <time>2019-05-12T07:02:07Z</time>
      </trkpt>
      <trkpt lat="48.04543" lon="3.32971">
        <ele>84.117188</ele>
        <time>2019-05-12T07:02:12Z</time>
      </trkpt>
      <trkpt lat="48.04532" lon="3.33024">
        <ele>84.570312</ele>
        <time>2019-05-12T07:02:24Z</time>
      </trkpt>
      <trkpt lat="48.04525" lon="3.33075">
        <ele>84.4375</ele>
        <time>2019-05-12T07:02:35Z</time>
      </trkpt>
      <trkpt lat="48.0452" lon="3.33109">
        <ele>84.246094</ele>
        <time>2019-05-12T07:02:50Z</time>
      </trkpt>
      <trkpt lat="48.04511" lon="3.3317">
        <ele>84.707031</ele>
        <time>2019-05-12T07:04:39Z</time>
      </trkpt>
      <trkpt lat="48.04507" lon="3.33194">
        <ele>85.027344</ele>
        <time>2019-05-12T07:04:52Z</time>
      </trkpt>
      <trkpt lat="48.04504" lon="3.33215">
        <ele>85.257812</ele>
        <time>2019-05-12T07:05:04Z</time>
      </trkpt>
      <trkpt lat="48.04503" lon="3.33226">
        <ele>85.347656</ele>
        <time>2019-05-12T07:05:10Z</time>
      </trkpt>
      <trkpt lat="48.04495" lon="3.33272">
        <ele>85.796875</ele>
        <time>2019-05-12T07:05:35Z</time>
      </trkpt>
      <trkpt lat="48.0449" lon="3.33294">
        <ele>85.949219</ele>
        <time>2019-05-12T07:05:47Z</time>
      </trkpt>
      <trkpt lat="48.04485" lon="3.3332">
        <ele>86.074219</ele>
        <time>2019-05-12T07:05:53Z</time>
      </trkpt>
      <trkpt lat="48.04482" lon="3.33335">
        <ele>86.121094</ele>
        <time>2019-05-12T07:06:06Z</time>
      </trkpt>
      <trkpt lat="48.04479" lon="3.33351">
        <ele>86.066406</ele>
        <time>2019-05-12T07:06:11Z</time>
      </trkpt>
      <trkpt lat="48.04475" lon="3.33371">
        <ele>86.371094</ele>
        <time>2019-05-12T07:06:24Z</time>
      </trkpt>
      <trkpt lat="48.04471" lon="3.33387">
        <ele>86.578125</ele>
        <time>2019-05-12T07:06:36Z</time>
      </trkpt>
      <trkpt lat="48.04468" lon="3.33403">
        <ele>86.75</ele>
        <time>2019-05-12T07:06:47Z</time>
      </trkpt>
      <trkpt lat="48.04465" lon="3.3342">
        <ele>86.882812</ele>
        <time>2019-05-12T07:06:58Z</time>
      </trkpt>
      <trkpt lat="48.04464" lon="3.33426">
        <ele>86.929688</ele>
        <time>2019-05-12T07:07:01Z</time>
      </trkpt>
      <trkpt lat="48.04462" lon="3.33435">
        <ele>86.988281</ele>
        <time>2019-05-12T07:07:06Z</time>
      </trkpt>
      <trkpt lat="48.04457" lon="3.33456">
        <ele>87.484375</ele>
        <time>2019-05-12T07:07:18Z</time>
      </trkpt>
      <trkpt lat="48.04453" lon="3.33477">
        <ele>87.628906</ele>
        <time>2019-05-12T07:07:29Z</time>
      </trkpt>
      <trkpt lat="48.04448" lon="3.335">
        <ele>87.601562</ele>
        <time>2019-05-12T07:07:41Z</time>
      </trkpt>
      <trkpt lat="48.04446" lon="3.33513">
        <ele>87.542969</ele>
        <time>2019-05-12T07:07:49Z</time>
      </trkpt>
      <trkpt lat="48.04443" lon="3.33528">
        <ele>87.683594</ele>
        <time>2019-05-12T07:07:55Z</time>
      </trkpt>
      <trkpt lat="48.04441" lon="3.33537">
        <ele>87.878906</ele>
        <time>2019-05-12T07:08:00Z</time>
      </trkpt>
      <trkpt lat="48.04438" lon="3.33555">
        <ele>88.152344</ele>
        <time>2019-05-12T07:08:12Z</time>
      </trkpt>
      <trkpt lat="48.04433" lon="3.33581">
        <ele>88.5</ele>
        <time>2019-05-12T07:08:22Z</time>
      </trkpt>
      <trkpt lat="48.04431" lon="3.33599">
        <ele>88.507812</ele>
        <time>2019-05-12T07:08:33Z</time>
      </trkpt>
      <trkpt lat="48.0443" lon="3.33615">
        <ele>88.417969</ele>
        <time>2019-05-12T07:08:44Z</time>
      </trkpt>
      <trkpt lat="48.0443" lon="3.33624">
        <ele>88.367188</ele>
        <time>2019-05-12T07:08:46Z</time>
      </trkpt>
      <trkpt lat="48.04428" lon="3.33641">
        <ele>88.484375</ele>
        <time>2019-05-12T07:08:58Z</time>
      </trkpt>
      <trkpt lat="48.04428" lon="3.33642">
        <ele>88.492188</ele>
        <time>2019-05-12T07:08:59Z</time>
      </trkpt>
      <trkpt lat="48.04427" lon="3.33652">
        <ele>88.660156</ele>
        <time>2019-05-12T07:09:05Z</time>
      </trkpt>
      <trkpt lat="48.04425" lon="3.33674">
        <ele>88.910156</ele>
        <time>2019-05-12T07:09:18Z</time>
      </trkpt>
      <trkpt lat="48.04422" lon="3.33691">
        <ele>89.238281</ele>
        <time>2019-05-12T07:09:28Z</time>
      </trkpt>
      <trkpt lat="48.04419" lon="3.3371">
        <ele>89.707031</ele>
        <time>2019-05-12T07:09:40Z</time>
      </trkpt>
      <trkpt lat="48.04416" lon="3.33731">
        <ele>90.253906</ele>
        <time>2019-05-12T07:09:52Z</time>
      </trkpt>
      <trkpt lat="48.04412" lon="3.33756">
        <ele>90.730469</ele>
        <time>2019-05-12T07:10:06Z</time>
      </trkpt>
      <trkpt lat="48.04408" lon="3.33778">
        <ele>90.945312</ele>
        <time>2019-05-12T07:10:20Z</time>
      </trkpt>
      <trkpt lat="48.04403" lon="3.33797">
        <ele>91.140625</ele>
        <time>2019-05-12T07:10:32Z</time>
      </trkpt>
      <trkpt lat="48.04401" lon="3.3381">
        <ele>91.292969</ele>
        <time>2019-05-12T07:10:43Z</time>
      </trkpt>
      <trkpt lat="48.04398" lon="3.33822">
        <ele>91.457031</ele>
        <time>2019-05-12T07:10:47Z</time>
      </trkpt>
      <trkpt lat="48.04393" lon="3.33844">
        <ele>91.71875</ele>
        <time>2019-05-12T07:11:00Z</time>
      </trkpt>
      <trkpt lat="48.04388" lon="3.3386">
        <ele>91.953125</ele>
        <time>2019-05-12T07:11:10Z</time>
      </trkpt>
      <trkpt lat="48.04385" lon="3.33875">
        <ele>92.15625</ele>
        <time>2019-05-12T07:11:21Z</time>
      </trkpt>
      <trkpt lat="48.04382" lon="3.33889">
        <ele>92.3125</ele>
        <time>2019-05-12T07:11:28Z</time>
      </trkpt>
      <trkpt lat="48.04379" lon="3.33901">
        <ele>92.457031</ele>
        <time>2019-05-12T07:11:35Z</time>
      </trkpt>
      <trkpt lat="48.04375" lon="3.33918">
        <ele>92.476562</ele>
        <time>2019-05-12T07:11:46Z</time>
      </trkpt>
      <trkpt lat="48.04372" lon="3.33931">
        <ele>92.402344</ele>
        <time>2019-05-12T07:11:54Z</time>
      </trkpt>
      <trkpt lat="48.04369" lon="3.33944">
        <ele>92.324219</ele>
        <time>2019-05-12T07:12:02Z</time>
      </trkpt>
      <trkpt lat="48.04365" lon="3.33966">
        <ele>92.230469</ele>
        <time>2019-05-12T07:12:14Z</time>
      </trkpt>
      <trkpt lat="48.04362" lon="3.33983">
        <ele>92.398438</ele>
        <time>2019-05-12T07:12:25Z</time>
      </trkpt>
      <trkpt lat="48.04359" lon="3.33996">
        <ele>92.53125</ele>
        <time>2019-05-12T07:12:33Z</time>
      </trkpt>
      <trkpt lat="48.04357" lon="3.34009">
        <ele>92.636719</ele>
        <time>2019-05-12T07:12:41Z</time>
      </trkpt>
      <trkpt lat="48.04354" lon="3.3403">
        <ele>92.84375</ele>
        <time>2019-05-12T07:12:52Z</time>
      </trkpt>
      <trkpt lat="48.04351" lon="3.34048">
        <ele>92.972656</ele>
        <time>2019-05-12T07:13:03Z</time>
      </trkpt>
      <trkpt lat="48.0435" lon="3.34069">
        <ele>93.066406</ele>
        <time>2019-05-12T07:13:15Z</time>
      </trkpt>
      <trkpt lat="48.04347" lon="3.34089">
        <ele>93.261719</ele>
        <time>2019-05-12T07:13:27Z</time>
      </trkpt>
      <trkpt lat="48.04346" lon="3.34106">
        <ele>93.339844</ele>
        <time>2019-05-12T07:13:38Z</time>
      </trkpt>
      <trkpt lat="48.04345" lon="3.34125">
        <ele>93.527344</ele>
        <time>2019-05-12T07:13:50Z</time>
      </trkpt>
      <trkpt lat="48.04342" lon="3.34145">
        <ele>93.726562</ele>
        <time>2019-05-12T07:14:02Z</time>
      </trkpt>
      <trkpt lat="48.0434" lon="3.34169">
        <ele>93.976562</ele>
        <time>2019-05-12T07:14:14Z</time>
      </trkpt>
      <trkpt lat="48.04337" lon="3.34187">
        <ele>94.183594</ele>
        <time>2019-05-12T07:14:26Z</time>
      </trkpt>
      <trkpt lat="48.04335" lon="3.34205">
        <ele>94.507812</ele>
        <time>2019-05-12T07:14:37Z</time>
      </trkpt>
      <trkpt lat="48.04333" lon="3.34221">
        <ele>94.753906</ele>
        <time>2019-05-12T07:14:46Z</time>
      </trkpt>
      <trkpt lat="48.0433" lon="3.34242">
        <ele>95.238281</ele>
        <time>2019-05-12T07:14:59Z</time>
      </trkpt>
      <trkpt lat="48.04323" lon="3.34283">
        <ele>95.921875</ele>
        <time>2019-05-12T07:15:12Z</time>
      </trkpt>
      <trkpt lat="48.04323" lon="3.34291">
        <ele>96.019531</ele>
        <time>2019-05-12T07:15:24Z</time>
      </trkpt>
      <trkpt lat="48.04323" lon="3.34302">
        <ele>96.074219</ele>
        <time>2019-05-12T07:15:33Z</time>
      </trkpt>
      <trkpt lat="48.04322" lon="3.34308">
        <ele>96.144531</ele>
        <time>2019-05-12T07:15:38Z</time>
      </trkpt>
      <trkpt lat="48.04322" lon="3.34317">
        <ele>96.277344</ele>
        <time>2019-05-12T07:15:41Z</time>
      </trkpt>
      <trkpt lat="48.04321" lon="3.34322">
        <ele>96.371094</ele>
        <time>2019-05-12T07:15:45Z</time>
      </trkpt>
      <trkpt lat="48.04321" lon="3.34327">
        <ele>96.433594</ele>
        <time>2019-05-12T07:15:47Z</time>
      </trkpt>
      <trkpt lat="48.04321" lon="3.34332">
        <ele>96.457031</ele>
        <time>2019-05-12T07:15:51Z</time>
      </trkpt>
      <trkpt lat="48.04321" lon="3.34342">
        <ele>96.53125</ele>
        <time>2019-05-12T07:15:58Z</time>
      </trkpt>
      <trkpt lat="48.04321" lon="3.34354">
        <ele>96.699219</ele>
        <time>2019-05-12T07:16:05Z</time>
      </trkpt>
      <trkpt lat="48.0432" lon="3.34371">
        <ele>96.898438</ele>
        <time>2019-05-12T07:16:17Z</time>
      </trkpt>
      <trkpt lat="48.04321" lon="3.34395">
        <ele>97</ele>
        <time>2019-05-12T07:16:29Z</time>
      </trkpt>
      <trkpt lat="48.04322" lon="3.34411">
        <ele>97.054688</ele>
        <time>2019-05-12T07:16:37Z</time>
      </trkpt>
      <trkpt lat="48.04323" lon="3.34431">
        <ele>97.179688</ele>
        <time>2019-05-12T07:16:49Z</time>
      </trkpt>
      <trkpt lat="48.04324" lon="3.34442">
        <ele>97.246094</ele>
        <time>2019-05-12T07:17:02Z</time>
      </trkpt>
      <trkpt lat="48.04327" lon="3.34468">
        <ele>97.421875</ele>
        <time>2019-05-12T07:17:14Z</time>
      </trkpt>
      <trkpt lat="48.04328" lon="3.34488">
        <ele>97.847656</ele>
        <time>2019-05-12T07:17:25Z</time>
      </trkpt>
      <trkpt lat="48.0433" lon="3.34509">
        <ele>98.242188</ele>
        <time>2019-05-12T07:17:34Z</time>
      </trkpt>
      <trkpt lat="48.0433" lon="3.34517">
        <ele>98.445312</ele>
        <time>2019-05-12T07:17:46Z</time>
      </trkpt>
      <trkpt lat="48.04332" lon="3.34529">
        <ele>98.46875</ele>
        <time>2019-05-12T07:17:47Z</time>
      </trkpt>
      <trkpt lat="48.04337" lon="3.3454">
        <ele>98.242188</ele>
        <time>2019-05-12T07:17:58Z</time>
      </trkpt>
      <trkpt lat="48.04341" lon="3.34546">
        <ele>98.085938</ele>
        <time>2019-05-12T07:18:13Z</time>
      </trkpt>
      <trkpt lat="48.04349" lon="3.34545">
        <ele>97.570312</ele>
        <time>2019-05-12T07:18:29Z</time>
      </trkpt>
      <trkpt lat="48.04356" lon="3.34544">
        <ele>97.519531</ele>
        <time>2019-05-12T07:23:31Z</time>
      </trkpt>
      <trkpt lat="48.04374" lon="3.34544">
        <ele>97.6875</ele>
        <time>2019-05-12T07:23:48Z</time>
      </trkpt>
      <trkpt lat="48.04393" lon="3.34544">
        <ele>97.871094</ele>
        <time>2019-05-12T07:24:05Z</time>
      </trkpt>
      <trkpt lat="48.0441" lon="3.34544">
        <ele>98.378906</ele>
        <time>2019-05-12T07:24:18Z</time>
      </trkpt>
      <trkpt lat="48.04414" lon="3.34531">
        <ele>98.683594</ele>
        <time>2019-05-12T07:24:21Z</time>
      </trkpt>
      <trkpt lat="48.04418" lon="3.34516">
        <ele>99.09375</ele>
        <time>2019-05-12T07:24:28Z</time>
      </trkpt>
      <trkpt lat="48.04423" lon="3.34517">
        <ele>99.585938</ele>
        <time>2019-05-12T07:24:42Z</time>
      </trkpt>
      <trkpt lat="48.04441" lon="3.3452">
        <ele>101.175781</ele>
        <time>2019-05-12T07:25:00Z</time>
      </trkpt>
      <trkpt lat="48.04451" lon="3.34521">
        <ele>102.050781</ele>
        <time>2019-05-12T07:25:24Z</time>
      </trkpt>
      <trkpt lat="48.04461" lon="3.34522">
        <ele>102.941406</ele>
        <time>2019-05-12T07:25:42Z</time>
      </trkpt>
      <trkpt lat="48.04466" lon="3.34518">
        <ele>103.820312</ele>
        <time>2019-05-12T07:26:01Z</time>
      </trkpt>
      <trkpt lat="48.04481" lon="3.34498">
        <ele>107.34375</ele>
        <time>2019-05-12T07:26:23Z</time>
      </trkpt>
      <trkpt lat="48.04502" lon="3.34487">
        <ele>111.683594</ele>
        <time>2019-05-12T07:26:44Z</time>
      </trkpt>
      <trkpt lat="48.04517" lon="3.34483">
        <ele>114.621094</ele>
        <time>2019-05-12T07:27:04Z</time>
      </trkpt>
      <trkpt lat="48.04534" lon="3.34482">
        <ele>117.195312</ele>
        <time>2019-05-12T07:27:25Z</time>
      </trkpt>
      <trkpt lat="48.04578" lon="3.34484">
        <ele>123.761719</ele>
        <time>2019-05-12T07:27:45Z</time>
      </trkpt>
      <trkpt lat="48.0459" lon="3.34482">
        <ele>125.699219</ele>
        <time>2019-05-12T07:28:06Z</time>
      </trkpt>
      <trkpt lat="48.046" lon="3.34476">
        <ele>127.601562</ele>
        <time>2019-05-12T07:28:28Z</time>
      </trkpt>
      <trkpt lat="48.04612" lon="3.34473">
        <ele>129.648438</ele>
        <time>2019-05-12T07:28:51Z</time>
      </trkpt>
      <trkpt lat="48.0462" lon="3.34477">
        <ele>130.734375</ele>
        <time>2019-05-12T07:29:12Z</time>
      </trkpt>
      <trkpt lat="48.04633" lon="3.34484">
        <ele>132.15625</ele>
        <time>2019-05-12T07:29:32Z</time>
      </trkpt>
      <trkpt lat="48.04649" lon="3.34496">
        <ele>133.675781</ele>
        <time>2019-05-12T07:29:52Z</time>
      </trkpt>
      <trkpt lat="48.04664" lon="3.34505">
        <ele>135.277344</ele>
        <time>2019-05-12T07:30:14Z</time>
      </trkpt>
      <trkpt lat="48.04677" lon="3.34506">
        <ele>137.171875</ele>
        <time>2019-05-12T07:30:37Z</time>
      </trkpt>
      <trkpt lat="48.04691" lon="3.34502">
        <ele>139.898438</ele>
        <time>2019-05-12T07:30:56Z</time>
      </trkpt>
      <trkpt lat="48.04697" lon="3.34503">
        <ele>141.113281</ele>
        <time>2019-05-12T07:31:09Z</time>
      </trkpt>
      <trkpt lat="48.04704" lon="3.34501">
        <ele>142.554688</ele>
        <time>2019-05-12T07:31:30Z</time>
      </trkpt>
      <trkpt lat="48.04717" lon="3.34506">
        <ele>144.527344</ele>
        <time>2019-05-12T07:31:47Z</time>
      </trkpt>
      <trkpt lat="48.04725" lon="3.34514">
        <ele>145.082031</ele>
        <time>2019-05-12T07:32:08Z</time>
      </trkpt>
      <trkpt lat="48.04748" lon="3.3455">
        <ele>148.128906</ele>
        <time>2019-05-12T07:32:24Z</time>
      </trkpt>
      <trkpt lat="48.04764" lon="3.34581">
        <ele>151.375</ele>
        <time>2019-05-12T07:32:43Z</time>
      </trkpt>
      <trkpt lat="48.04796" lon="3.3468">
        <ele>157.132812</ele>
        <time>2019-05-12T07:33:06Z</time>
      </trkpt>
      <trkpt lat="48.04802" lon="3.34693">
        <ele>159.351562</ele>
        <time>2019-05-12T07:33:27Z</time>
      </trkpt>
      <trkpt lat="48.04809" lon="3.34702">
        <ele>161.480469</ele>
        <time>2019-05-12T07:33:46Z</time>
      </trkpt>
      <trkpt lat="48.04819" lon="3.34709">
        <ele>163.757812</ele>
        <time>2019-05-12T07:34:06Z</time>
      </trkpt>
      <trkpt lat="48.04832" lon="3.34721">
        <ele>166.320312</ele>
        <time>2019-05-12T07:34:26Z</time>
      </trkpt>
      <trkpt lat="48.04849" lon="3.34735">
        <ele>168.949219</ele>
        <time>2019-05-12T07:34:47Z</time>
      </trkpt>
      <trkpt lat="48.04872" lon="3.34754">
        <ele>172.046875</ele>
        <time>2019-05-12T07:35:08Z</time>
      </trkpt>
      <trkpt lat="48.0488" lon="3.34764">
        <ele>173.003906</ele>
        <time>2019-05-12T07:35:29Z</time>
      </trkpt>
      <trkpt lat="48.04893" lon="3.34787">
        <ele>174.511719</ele>
        <time>2019-05-12T07:35:52Z</time>
      </trkpt>
      <trkpt lat="48.04909" lon="3.34813">
        <ele>175.972656</ele>
        <time>2019-05-12T07:36:18Z</time>
      </trkpt>
      <trkpt lat="48.04921" lon="3.3483">
        <ele>176.632812</ele>
        <time>2019-05-12T07:36:37Z</time>
      </trkpt>
      <trkpt lat="48.04925" lon="3.34835">
        <ele>176.925781</ele>
        <time>2019-05-12T07:36:55Z</time>
      </trkpt>
      <trkpt lat="48.04931" lon="3.34848">
        <ele>177.285156</ele>
        <time>2019-05-12T07:37:22Z</time>
      </trkpt>
      <trkpt lat="48.04938" lon="3.34837">
        <ele>178.039062</ele>
        <time>2019-05-12T07:44:00Z</time>
      </trkpt>
      <trkpt lat="48.04949" lon="3.3482">
        <ele>179.054688</ele>
        <time>2019-05-12T07:44:25Z</time>
      </trkpt>
      <trkpt lat="48.04961" lon="3.34805">
        <ele>179.988281</ele>
        <time>2019-05-12T07:44:40Z</time>
      </trkpt>
      <trkpt lat="48.0498" lon="3.34787">
        <ele>180.828125</ele>
        <time>2019-05-12T07:45:05Z</time>
      </trkpt>
      <trkpt lat="48.04995" lon="3.3477">
        <ele>181.667969</ele>
        <time>2019-05-12T07:45:25Z</time>
      </trkpt>
      <trkpt lat="48.05014" lon="3.3475">
        <ele>182.738281</ele>
        <time>2019-05-12T07:45:49Z</time>
      </trkpt>
      <trkpt lat="48.05028" lon="3.34736">
        <ele>183.699219</ele>
        <time>2019-05-12T07:46:08Z</time>
      </trkpt>
      <trkpt lat="48.05039" lon="3.34719">
        <ele>184.417969</ele>
        <time>2019-05-12T07:46:32Z</time>
      </trkpt>
      <trkpt lat="48.05049" lon="3.34696">
        <ele>185.089844</ele>
        <time>2019-05-12T07:46:45Z</time>
      </trkpt>
      <trkpt lat="48.05056" lon="3.34682">
        <ele>185.394531</ele>
        <time>2019-05-12T07:46:47Z</time>
      </trkpt>
      <trkpt lat="48.05063" lon="3.34666">
        <ele>185.65625</ele>
        <time>2019-05-12T07:47:06Z</time>
      </trkpt>
      <trkpt lat="48.05074" lon="3.34641">
        <ele>186.023438</ele>
        <time>2019-05-12T07:47:29Z</time>
      </trkpt>
      <trkpt lat="48.05085" lon="3.3461">
        <ele>186.230469</ele>
        <time>2019-05-12T07:47:52Z</time>
      </trkpt>
      <trkpt lat="48.05097" lon="3.34577">
        <ele>186.441406</ele>
        <time>2019-05-12T07:48:13Z</time>
      </trkpt>
      <trkpt lat="48.05109" lon="3.34544">
        <ele>186.121094</ele>
        <time>2019-05-12T07:48:37Z</time>
      </trkpt>
      <trkpt lat="48.05121" lon="3.34511">
        <ele>185.871094</ele>
        <time>2019-05-12T07:49:00Z</time>
      </trkpt>
      <trkpt lat="48.05131" lon="3.3448">
        <ele>186.019531</ele>
        <time>2019-05-12T07:49:23Z</time>
      </trkpt>
      <trkpt lat="48.05135" lon="3.34468">
        <ele>186.011719</ele>
        <time>2019-05-12T07:49:30Z</time>
      </trkpt>
      <trkpt lat="48.05143" lon="3.34451">
        <ele>186</ele>
        <time>2019-05-12T07:49:53Z</time>
      </trkpt>
      <trkpt lat="48.05165" lon="3.34411">
        <ele>186</ele>
        <time>2019-05-12T07:50:14Z</time>
      </trkpt>
      <trkpt lat="48.05178" lon="3.34386">
        <ele>185.578125</ele>
        <time>2019-05-12T07:50:37Z</time>
      </trkpt>
      <trkpt lat="48.05192" lon="3.34361">
        <ele>185.324219</ele>
        <time>2019-05-12T07:50:56Z</time>
      </trkpt>
      <trkpt lat="48.05202" lon="3.34341">
        <ele>185.21875</ele>
        <time>2019-05-12T07:51:19Z</time>
      </trkpt>
      <trkpt lat="48.05219" lon="3.3431">
        <ele>185.382812</ele>
        <time>2019-05-12T07:51:42Z</time>
      </trkpt>
      <trkpt lat="48.05233" lon="3.34284">
        <ele>185.800781</ele>
        <time>2019-05-12T07:52:03Z</time>
      </trkpt>
      <trkpt lat="48.0524" lon="3.34272">
        <ele>186.011719</ele>
        <time>2019-05-12T07:52:07Z</time>
      </trkpt>
      <trkpt lat="48.05253" lon="3.34247">
        <ele>186.25</ele>
        <time>2019-05-12T07:52:31Z</time>
      </trkpt>
      <trkpt lat="48.05263" lon="3.34227">
        <ele>186.441406</ele>
        <time>2019-05-12T07:52:54Z</time>
      </trkpt>
      <trkpt lat="48.05275" lon="3.34206">
        <ele>186.644531</ele>
        <time>2019-05-12T07:53:16Z</time>
      </trkpt>
      <trkpt lat="48.05281" lon="3.34195">
        <ele>186.753906</ele>
        <time>2019-05-12T07:53:33Z</time>
      </trkpt>
      <trkpt lat="48.05289" lon="3.34181">
        <ele>186.828125</ele>
        <time>2019-05-12T07:53:51Z</time>
      </trkpt>
      <trkpt lat="48.05297" lon="3.34191">
        <ele>187</ele>
        <time>2019-05-12T07:54:08Z</time>
      </trkpt>
      <trkpt lat="48.05314" lon="3.34207">
        <ele>187</ele>
        <time>2019-05-12T07:54:28Z</time>
      </trkpt>
      <trkpt lat="48.05324" lon="3.34217">
        <ele>187</ele>
        <time>2019-05-12T07:54:49Z</time>
      </trkpt>
      <trkpt lat="48.05341" lon="3.34233">
        <ele>187</ele>
        <time>2019-05-12T07:55:12Z</time>
      </trkpt>
      <trkpt lat="48.05356" lon="3.34248">
        <ele>187</ele>
        <time>2019-05-12T07:55:32Z</time>
      </trkpt>
      <trkpt lat="48.05373" lon="3.34264">
        <ele>187</ele>
        <time>2019-05-12T07:55:52Z</time>
      </trkpt>
      <trkpt lat="48.05389" lon="3.34279">
        <ele>187</ele>
        <time>2019-05-12T07:56:15Z</time>
      </trkpt>
      <trkpt lat="48.05408" lon="3.34295">
        <ele>186.953125</ele>
        <time>2019-05-12T07:56:36Z</time>
      </trkpt>
      <trkpt lat="48.05403" lon="3.3431">
        <ele>187</ele>
        <time>2019-05-12T07:56:55Z</time>
      </trkpt>
      <trkpt lat="48.05398" lon="3.34326">
        <ele>187</ele>
        <time>2019-05-12T07:57:14Z</time>
      </trkpt>
      <trkpt lat="48.05394" lon="3.3434">
        <ele>187</ele>
        <time>2019-05-12T07:57:32Z</time>
      </trkpt>
      <trkpt lat="48.05382" lon="3.34375">
        <ele>186.757812</ele>
        <time>2019-05-12T07:57:57Z</time>
      </trkpt>
      <trkpt lat="48.0538" lon="3.3438">
        <ele>186.726562</ele>
        <time>2019-05-12T07:58:18Z</time>
      </trkpt>
      <trkpt lat="48.0539" lon="3.34388">
        <ele>186.519531</ele>
        <time>2019-05-12T07:58:42Z</time>
      </trkpt>
      <trkpt lat="48.05408" lon="3.34406">
        <ele>185.972656</ele>
        <time>2019-05-12T07:58:55Z</time>
      </trkpt>
      <trkpt lat="48.05392" lon="3.3439">
        <ele>186.472656</ele>
        <time>2019-05-12T07:59:15Z</time>
      </trkpt>
      <trkpt lat="48.05381" lon="3.34379">
        <ele>186.726562</ele>
        <time>2019-05-12T07:59:34Z</time>
      </trkpt>
      <trkpt lat="48.05382" lon="3.34374">
        <ele>186.765625</ele>
        <time>2019-05-12T07:59:55Z</time>
      </trkpt>
      <trkpt lat="48.05361" lon="3.34356">
        <ele>186.984375</ele>
        <time>2019-05-12T08:00:13Z</time>
      </trkpt>
      <trkpt lat="48.05372" lon="3.34366">
        <ele>186.898438</ele>
        <time>2019-05-12T08:00:35Z</time>
      </trkpt>
      <trkpt lat="48.05382" lon="3.34374">
        <ele>186.765625</ele>
        <time>2019-05-12T08:01:49Z</time>
      </trkpt>
      <trkpt lat="48.0539" lon="3.34351">
        <ele>187</ele>
        <time>2019-05-12T08:11:23Z</time>
      </trkpt>
      <trkpt lat="48.05394" lon="3.3434">
        <ele>187</ele>
        <time>2019-05-12T08:11:41Z</time>
      </trkpt>
      <trkpt lat="48.05399" lon="3.34324">
        <ele>187</ele>
        <time>2019-05-12T08:12:02Z</time>
      </trkpt>
      <trkpt lat="48.05401" lon="3.34315">
        <ele>187</ele>
        <time>2019-05-12T08:12:20Z</time>
      </trkpt>
      <trkpt lat="48.05408" lon="3.34295">
        <ele>186.949219</ele>
        <time>2019-05-12T08:12:41Z</time>
      </trkpt>
      <trkpt lat="48.05402" lon="3.34289">
        <ele>187</ele>
        <time>2019-05-12T08:13:00Z</time>
      </trkpt>
      <trkpt lat="48.05396" lon="3.34284">
        <ele>187</ele>
        <time>2019-05-12T08:13:19Z</time>
      </trkpt>
      <trkpt lat="48.05377" lon="3.34269">
        <ele>187</ele>
        <time>2019-05-12T08:13:41Z</time>
      </trkpt>
      <trkpt lat="48.05363" lon="3.34255">
        <ele>187</ele>
        <time>2019-05-12T08:14:02Z</time>
      </trkpt>
      <trkpt lat="48.05342" lon="3.34234">
        <ele>187</ele>
        <time>2019-05-12T08:14:23Z</time>
      </trkpt>
      <trkpt lat="48.05318" lon="3.34213">
        <ele>187</ele>
        <time>2019-05-12T08:14:45Z</time>
      </trkpt>
      <trkpt lat="48.05297" lon="3.34191">
        <ele>187</ele>
        <time>2019-05-12T08:15:06Z</time>
      </trkpt>
      <trkpt lat="48.05289" lon="3.3418">
        <ele>186.820312</ele>
        <time>2019-05-12T08:15:27Z</time>
      </trkpt>
      <trkpt lat="48.05307" lon="3.34146">
        <ele>186.449219</ele>
        <time>2019-05-12T08:15:51Z</time>
      </trkpt>
      <trkpt lat="48.05319" lon="3.34124">
        <ele>186.390625</ele>
        <time>2019-05-12T08:16:59Z</time>
      </trkpt>
      <trkpt lat="48.05325" lon="3.34113">
        <ele>186.375</ele>
        <time>2019-05-12T08:17:39Z</time>
      </trkpt>
      <trkpt lat="48.05335" lon="3.34091">
        <ele>186.214844</ele>
        <time>2019-05-12T08:17:59Z</time>
      </trkpt>
      <trkpt lat="48.0534" lon="3.3408">
        <ele>186.085938</ele>
        <time>2019-05-12T08:18:00Z</time>
      </trkpt>
      <trkpt lat="48.05352" lon="3.34057">
        <ele>186</ele>
        <time>2019-05-12T08:18:20Z</time>
      </trkpt>
      <trkpt lat="48.05363" lon="3.34036">
        <ele>186</ele>
        <time>2019-05-12T08:18:42Z</time>
      </trkpt>
      <trkpt lat="48.05376" lon="3.34005">
        <ele>185.753906</ele>
        <time>2019-05-12T08:19:05Z</time>
      </trkpt>
      <trkpt lat="48.05384" lon="3.33981">
        <ele>185.316406</ele>
        <time>2019-05-12T08:19:18Z</time>
      </trkpt>
      <trkpt lat="48.05389" lon="3.33965">
        <ele>185.03125</ele>
        <time>2019-05-12T08:19:20Z</time>
      </trkpt>
      <trkpt lat="48.05393" lon="3.33952">
        <ele>184.839844</ele>
        <time>2019-05-12T08:19:35Z</time>
      </trkpt>
      <trkpt lat="48.05396" lon="3.33942">
        <ele>184.683594</ele>
        <time>2019-05-12T08:19:36Z</time>
      </trkpt>
      <trkpt lat="48.05402" lon="3.33922">
        <ele>184.300781</ele>
        <time>2019-05-12T08:19:52Z</time>
      </trkpt>
      <trkpt lat="48.0541" lon="3.33894">
        <ele>183.6875</ele>
        <time>2019-05-12T08:20:13Z</time>
      </trkpt>
      <trkpt lat="48.05413" lon="3.33885">
        <ele>183.46875</ele>
        <time>2019-05-12T08:20:15Z</time>
      </trkpt>
      <trkpt lat="48.05414" lon="3.33878">
        <ele>183.300781</ele>
        <time>2019-05-12T08:20:19Z</time>
      </trkpt>
      <trkpt lat="48.05422" lon="3.33854">
        <ele>182.730469</ele>
        <time>2019-05-12T08:20:40Z</time>
      </trkpt>
      <trkpt lat="48.05431" lon="3.33835">
        <ele>182.230469</ele>
        <time>2019-05-12T08:20:57Z</time>
      </trkpt>
      <trkpt lat="48.05443" lon="3.33816">
        <ele>181.660156</ele>
        <time>2019-05-12T08:21:14Z</time>
      </trkpt>
      <trkpt lat="48.05459" lon="3.33798">
        <ele>181.042969</ele>
        <time>2019-05-12T08:21:26Z</time>
      </trkpt>
      <trkpt lat="48.05484" lon="3.33769">
        <ele>180.382812</ele>
        <time>2019-05-12T08:21:44Z</time>
      </trkpt>
      <trkpt lat="48.05503" lon="3.33747">
        <ele>179.550781</ele>
        <time>2019-05-12T08:22:03Z</time>
      </trkpt>
      <trkpt lat="48.05522" lon="3.33727">
        <ele>178.574219</ele>
        <time>2019-05-12T08:22:22Z</time>
      </trkpt>
      <trkpt lat="48.0554" lon="3.33705">
        <ele>177.773438</ele>
        <time>2019-05-12T08:22:42Z</time>
      </trkpt>
      <trkpt lat="48.05561" lon="3.33681">
        <ele>177.125</ele>
        <time>2019-05-12T08:23:00Z</time>
      </trkpt>
      <trkpt lat="48.05554" lon="3.33667">
        <ele>177.089844</ele>
        <time>2019-05-12T08:23:11Z</time>
      </trkpt>
      <trkpt lat="48.05549" lon="3.33659">
        <ele>177.132812</ele>
        <time>2019-05-12T08:23:18Z</time>
      </trkpt>
      <trkpt lat="48.05546" lon="3.33655">
        <ele>177.1875</ele>
        <time>2019-05-12T08:23:20Z</time>
      </trkpt>
      <trkpt lat="48.05542" lon="3.3365">
        <ele>177.257812</ele>
        <time>2019-05-12T08:23:22Z</time>
      </trkpt>
      <trkpt lat="48.05536" lon="3.33645">
        <ele>177.386719</ele>
        <time>2019-05-12T08:23:27Z</time>
      </trkpt>
      <trkpt lat="48.0553" lon="3.33639">
        <ele>177.566406</ele>
        <time>2019-05-12T08:23:33Z</time>
      </trkpt>
      <trkpt lat="48.05518" lon="3.33627">
        <ele>177.902344</ele>
        <time>2019-05-12T08:23:50Z</time>
      </trkpt>
      <trkpt lat="48.05512" lon="3.33622">
        <ele>178.003906</ele>
        <time>2019-05-12T08:23:56Z</time>
      </trkpt>
      <trkpt lat="48.05506" lon="3.33616">
        <ele>178.136719</ele>
        <time>2019-05-12T08:23:59Z</time>
      </trkpt>
      <trkpt lat="48.05494" lon="3.33606">
        <ele>178.375</ele>
        <time>2019-05-12T08:24:16Z</time>
      </trkpt>
      <trkpt lat="48.05487" lon="3.33599">
        <ele>178.507812</ele>
        <time>2019-05-12T08:24:21Z</time>
      </trkpt>
      <trkpt lat="48.05476" lon="3.33589">
        <ele>178.742188</ele>
        <time>2019-05-12T08:24:36Z</time>
      </trkpt>
      <trkpt lat="48.05465" lon="3.33579">
        <ele>178.949219</ele>
        <time>2019-05-12T08:24:47Z</time>
      </trkpt>
      <trkpt lat="48.05452" lon="3.33568">
        <ele>179.332031</ele>
        <time>2019-05-12T08:25:01Z</time>
      </trkpt>
      <trkpt lat="48.05439" lon="3.33556">
        <ele>179.804688</ele>
        <time>2019-05-12T08:25:16Z</time>
      </trkpt>
      <trkpt lat="48.05428" lon="3.33547">
        <ele>180.199219</ele>
        <time>2019-05-12T08:25:24Z</time>
      </trkpt>
      <trkpt lat="48.05414" lon="3.33535">
        <ele>180.691406</ele>
        <time>2019-05-12T08:25:41Z</time>
      </trkpt>
      <trkpt lat="48.054" lon="3.33523">
        <ele>181</ele>
        <time>2019-05-12T08:25:56Z</time>
      </trkpt>
      <trkpt lat="48.05392" lon="3.33516">
        <ele>181</ele>
        <time>2019-05-12T08:25:59Z</time>
      </trkpt>
      <trkpt lat="48.05384" lon="3.33509">
        <ele>181</ele>
        <time>2019-05-12T08:26:07Z</time>
      </trkpt>
      <trkpt lat="48.05373" lon="3.33497">
        <ele>181</ele>
        <time>2019-05-12T08:26:10Z</time>
      </trkpt>
      <trkpt lat="48.05369" lon="3.33494">
        <ele>181</ele>
        <time>2019-05-12T08:26:25Z</time>
      </trkpt>
      <trkpt lat="48.05364" lon="3.3349">
        <ele>181</ele>
        <time>2019-05-12T08:26:26Z</time>
      </trkpt>
      <trkpt lat="48.0536" lon="3.33486">
        <ele>181</ele>
        <time>2019-05-12T08:26:40Z</time>
      </trkpt>
      <trkpt lat="48.05352" lon="3.33479">
        <ele>181</ele>
        <time>2019-05-12T08:26:47Z</time>
      </trkpt>
      <trkpt lat="48.05339" lon="3.33468">
        <ele>181</ele>
        <time>2019-05-12T08:27:04Z</time>
      </trkpt>
      <trkpt lat="48.05326" lon="3.33456">
        <ele>181</ele>
        <time>2019-05-12T08:27:28Z</time>
      </trkpt>
      <trkpt lat="48.0532" lon="3.3345">
        <ele>181</ele>
        <time>2019-05-12T08:27:51Z</time>
      </trkpt>
      <trkpt lat="48.05313" lon="3.33445">
        <ele>181</ele>
        <time>2019-05-12T08:28:25Z</time>
      </trkpt>
      <trkpt lat="48.05298" lon="3.3343">
        <ele>181</ele>
        <time>2019-05-12T08:28:43Z</time>
      </trkpt>
      <trkpt lat="48.05281" lon="3.33416">
        <ele>181</ele>
        <time>2019-05-12T08:29:00Z</time>
      </trkpt>
      <trkpt lat="48.05253" lon="3.3339">
        <ele>180.761719</ele>
        <time>2019-05-12T08:29:24Z</time>
      </trkpt>
      <trkpt lat="48.05223" lon="3.33363">
        <ele>179.863281</ele>
        <time>2019-05-12T08:29:48Z</time>
      </trkpt>
      <trkpt lat="48.05198" lon="3.33341">
        <ele>179.113281</ele>
        <time>2019-05-12T08:30:11Z</time>
      </trkpt>
      <trkpt lat="48.05159" lon="3.33305">
        <ele>177.644531</ele>
        <time>2019-05-12T08:30:34Z</time>
      </trkpt>
      <trkpt lat="48.05148" lon="3.33297">
        <ele>177.355469</ele>
        <time>2019-05-12T08:30:54Z</time>
      </trkpt>
      <trkpt lat="48.05147" lon="3.33288">
        <ele>177.246094</ele>
        <time>2019-05-12T08:30:57Z</time>
      </trkpt>
      <trkpt lat="48.05149" lon="3.33266">
        <ele>177.03125</ele>
        <time>2019-05-12T08:31:11Z</time>
      </trkpt>
      <trkpt lat="48.05152" lon="3.33239">
        <ele>176.789062</ele>
        <time>2019-05-12T08:31:26Z</time>
      </trkpt>
      <trkpt lat="48.05154" lon="3.3322">
        <ele>176.359375</ele>
        <time>2019-05-12T08:31:30Z</time>
      </trkpt>
      <trkpt lat="48.05159" lon="3.33186">
        <ele>175.714844</ele>
        <time>2019-05-12T08:31:52Z</time>
      </trkpt>
      <trkpt lat="48.05164" lon="3.33154">
        <ele>175.191406</ele>
        <time>2019-05-12T08:32:11Z</time>
      </trkpt>
      <trkpt lat="48.0517" lon="3.33112">
        <ele>174.648438</ele>
        <time>2019-05-12T08:32:31Z</time>
      </trkpt>
      <trkpt lat="48.05177" lon="3.33078">
        <ele>174.492188</ele>
        <time>2019-05-12T08:32:50Z</time>
      </trkpt>
      <trkpt lat="48.05185" lon="3.33039">
        <ele>174.4375</ele>
        <time>2019-05-12T08:33:12Z</time>
      </trkpt>
      <trkpt lat="48.05193" lon="3.33002">
        <ele>174.542969</ele>
        <time>2019-05-12T08:33:33Z</time>
      </trkpt>
      <trkpt lat="48.05203" lon="3.3296">
        <ele>175.015625</ele>
        <time>2019-05-12T08:33:56Z</time>
      </trkpt>
      <trkpt lat="48.05208" lon="3.32935">
        <ele>174.832031</ele>
        <time>2019-05-12T08:34:19Z</time>
      </trkpt>
      <trkpt lat="48.05213" lon="3.32878">
        <ele>173.8125</ele>
        <time>2019-05-12T08:34:41Z</time>
      </trkpt>
      <trkpt lat="48.05215" lon="3.32845">
        <ele>173.230469</ele>
        <time>2019-05-12T08:34:58Z</time>
      </trkpt>
      <trkpt lat="48.05216" lon="3.32833">
        <ele>173.195312</ele>
        <time>2019-05-12T08:35:04Z</time>
      </trkpt>
      <trkpt lat="48.05217" lon="3.3282">
        <ele>173.203125</ele>
        <time>2019-05-12T08:35:25Z</time>
      </trkpt>
      <trkpt lat="48.05217" lon="3.32813">
        <ele>173.167969</ele>
        <time>2019-05-12T08:36:04Z</time>
      </trkpt>
      <trkpt lat="48.05218" lon="3.328">
        <ele>173.136719</ele>
        <time>2019-05-12T08:37:08Z</time>
      </trkpt>
      <trkpt lat="48.05223" lon="3.32762">
        <ele>172.328125</ele>
        <time>2019-05-12T08:37:24Z</time>
      </trkpt>
      <trkpt lat="48.05224" lon="3.32731">
        <ele>171.464844</ele>
        <time>2019-05-12T08:37:47Z</time>
      </trkpt>
      <trkpt lat="48.05228" lon="3.32693">
        <ele>171.1875</ele>
        <time>2019-05-12T08:38:09Z</time>
      </trkpt>
      <trkpt lat="48.05237" lon="3.32653">
        <ele>171.1875</ele>
        <time>2019-05-12T08:38:32Z</time>
      </trkpt>
      <trkpt lat="48.05242" lon="3.32634">
        <ele>171.214844</ele>
        <time>2019-05-12T08:38:53Z</time>
      </trkpt>
      <trkpt lat="48.05249" lon="3.3257">
        <ele>170.199219</ele>
        <time>2019-05-12T08:39:16Z</time>
      </trkpt>
      <trkpt lat="48.0525" lon="3.32559">
        <ele>169.835938</ele>
        <time>2019-05-12T08:39:35Z</time>
      </trkpt>
      <trkpt lat="48.05251" lon="3.3255">
        <ele>169.535156</ele>
        <time>2019-05-12T08:39:51Z</time>
      </trkpt>
      <trkpt lat="48.05254" lon="3.32517">
        <ele>168.441406</ele>
        <time>2019-05-12T08:40:11Z</time>
      </trkpt>
      <trkpt lat="48.05258" lon="3.32489">
        <ele>167.597656</ele>
        <time>2019-05-12T08:40:37Z</time>
      </trkpt>
      <trkpt lat="48.0526" lon="3.3246">
        <ele>166.566406</ele>
        <time>2019-05-12T08:40:40Z</time>
      </trkpt>
      <trkpt lat="48.05264" lon="3.3244">
        <ele>165.792969</ele>
        <time>2019-05-12T08:41:00Z</time>
      </trkpt>
      <trkpt lat="48.0527" lon="3.32411">
        <ele>164.832031</ele>
        <time>2019-05-12T08:41:21Z</time>
      </trkpt>
      <trkpt lat="48.05278" lon="3.32389">
        <ele>164.128906</ele>
        <time>2019-05-12T08:41:42Z</time>
      </trkpt>
      <trkpt lat="48.05282" lon="3.32377">
        <ele>163.730469</ele>
        <time>2019-05-12T08:41:55Z</time>
      </trkpt>
      <trkpt lat="48.05287" lon="3.32366">
        <ele>163.433594</ele>
        <time>2019-05-12T08:42:10Z</time>
      </trkpt>
      <trkpt lat="48.05292" lon="3.3236">
        <ele>163.269531</ele>
        <time>2019-05-12T08:42:28Z</time>
      </trkpt>
      <trkpt lat="48.05296" lon="3.3236">
        <ele>163.386719</ele>
        <time>2019-05-12T08:44:09Z</time>
      </trkpt>
      <trkpt lat="48.05313" lon="3.32359">
        <ele>163.425781</ele>
        <time>2019-05-12T08:44:22Z</time>
      </trkpt>
      <trkpt lat="48.05318" lon="3.32357">
        <ele>163.335938</ele>
        <time>2019-05-12T08:44:32Z</time>
      </trkpt>
      <trkpt lat="48.05323" lon="3.32356">
        <ele>163.203125</ele>
        <time>2019-05-12T08:44:45Z</time>
      </trkpt>
      <trkpt lat="48.05327" lon="3.32355">
        <ele>163.125</ele>
        <time>2019-05-12T08:44:47Z</time>
      </trkpt>
      <trkpt lat="48.05331" lon="3.32353">
        <ele>163.039062</ele>
        <time>2019-05-12T08:44:52Z</time>
      </trkpt>
      <trkpt lat="48.05342" lon="3.3235">
        <ele>162.445312</ele>
        <time>2019-05-12T08:45:03Z</time>
      </trkpt>
      <trkpt lat="48.05348" lon="3.32349">
        <ele>162.117188</ele>
        <time>2019-05-12T08:45:15Z</time>
      </trkpt>
      <trkpt lat="48.05365" lon="3.32348">
        <ele>161.730469</ele>
        <time>2019-05-12T08:45:26Z</time>
      </trkpt>
      <trkpt lat="48.05378" lon="3.32349">
        <ele>161.617188</ele>
        <time>2019-05-12T08:45:39Z</time>
      </trkpt>
      <trkpt lat="48.05384" lon="3.3235">
        <ele>161.828125</ele>
        <time>2019-05-12T08:45:45Z</time>
      </trkpt>
      <trkpt lat="48.05403" lon="3.32355">
        <ele>162.289062</ele>
        <time>2019-05-12T08:45:59Z</time>
      </trkpt>
      <trkpt lat="48.05417" lon="3.32361">
        <ele>162.667969</ele>
        <time>2019-05-12T08:46:12Z</time>
      </trkpt>
      <trkpt lat="48.05433" lon="3.32368">
        <ele>163.046875</ele>
        <time>2019-05-12T08:46:28Z</time>
      </trkpt>
      <trkpt lat="48.05446" lon="3.32375">
        <ele>163.578125</ele>
        <time>2019-05-12T08:46:44Z</time>
      </trkpt>
      <trkpt lat="48.05457" lon="3.32379">
        <ele>163.929688</ele>
        <time>2019-05-12T08:46:51Z</time>
      </trkpt>
      <trkpt lat="48.05463" lon="3.32382">
        <ele>164.136719</ele>
        <time>2019-05-12T08:46:54Z</time>
      </trkpt>
      <trkpt lat="48.05471" lon="3.32385">
        <ele>164.367188</ele>
        <time>2019-05-12T08:47:06Z</time>
      </trkpt>
      <trkpt lat="48.05483" lon="3.32391">
        <ele>165.121094</ele>
        <time>2019-05-12T08:47:19Z</time>
      </trkpt>
      <trkpt lat="48.05484" lon="3.32392">
        <ele>165.160156</ele>
        <time>2019-05-12T08:47:20Z</time>
      </trkpt>
      <trkpt lat="48.05497" lon="3.32398">
        <ele>165.824219</ele>
        <time>2019-05-12T08:47:33Z</time>
      </trkpt>
      <trkpt lat="48.05498" lon="3.32399">
        <ele>165.949219</ele>
        <time>2019-05-12T08:47:34Z</time>
      </trkpt>
      <trkpt lat="48.05516" lon="3.3241">
        <ele>167.117188</ele>
        <time>2019-05-12T08:47:48Z</time>
      </trkpt>
      <trkpt lat="48.05524" lon="3.32416">
        <ele>167.542969</ele>
        <time>2019-05-12T08:47:54Z</time>
      </trkpt>
      <trkpt lat="48.05535" lon="3.32423">
        <ele>167.945312</ele>
        <time>2019-05-12T08:48:05Z</time>
      </trkpt>
      <trkpt lat="48.0555" lon="3.32432">
        <ele>168.460938</ele>
        <time>2019-05-12T08:48:21Z</time>
      </trkpt>
      <trkpt lat="48.05567" lon="3.32442">
        <ele>168.886719</ele>
        <time>2019-05-12T08:48:39Z</time>
      </trkpt>
      <trkpt lat="48.05571" lon="3.32445">
        <ele>168.96875</ele>
        <time>2019-05-12T08:48:41Z</time>
      </trkpt>
      <trkpt lat="48.05584" lon="3.32452">
        <ele>169.136719</ele>
        <time>2019-05-12T08:48:55Z</time>
      </trkpt>
      <trkpt lat="48.05592" lon="3.32456">
        <ele>169.195312</ele>
        <time>2019-05-12T08:49:06Z</time>
      </trkpt>
      <trkpt lat="48.05614" lon="3.32475">
        <ele>169.570312</ele>
        <time>2019-05-12T08:49:18Z</time>
      </trkpt>
      <trkpt lat="48.05619" lon="3.32481">
        <ele>169.710938</ele>
        <time>2019-05-12T08:49:35Z</time>
      </trkpt>
      <trkpt lat="48.05622" lon="3.32485">
        <ele>169.820312</ele>
        <time>2019-05-12T08:49:37Z</time>
      </trkpt>
      <trkpt lat="48.05635" lon="3.325">
        <ele>170.214844</ele>
        <time>2019-05-12T08:49:51Z</time>
      </trkpt>
      <trkpt lat="48.05642" lon="3.32511">
        <ele>170.484375</ele>
        <time>2019-05-12T08:50:06Z</time>
      </trkpt>
      <trkpt lat="48.05647" lon="3.32519">
        <ele>170.628906</ele>
        <time>2019-05-12T08:50:23Z</time>
      </trkpt>
      <trkpt lat="48.05651" lon="3.32526">
        <ele>170.796875</ele>
        <time>2019-05-12T08:50:41Z</time>
      </trkpt>
      <trkpt lat="48.05655" lon="3.32531">
        <ele>170.921875</ele>
        <time>2019-05-12T08:50:57Z</time>
      </trkpt>
      <trkpt lat="48.05657" lon="3.32535">
        <ele>171.03125</ele>
        <time>2019-05-12T08:51:10Z</time>
      </trkpt>
      <trkpt lat="48.05661" lon="3.32543">
        <ele>171.21875</ele>
        <time>2019-05-12T08:51:16Z</time>
      </trkpt>
      <trkpt lat="48.05664" lon="3.32548">
        <ele>171.363281</ele>
        <time>2019-05-12T08:51:19Z</time>
      </trkpt>
      <trkpt lat="48.0567" lon="3.32557">
        <ele>171.59375</ele>
        <time>2019-05-12T08:51:35Z</time>
      </trkpt>
      <trkpt lat="48.05679" lon="3.32573">
        <ele>172</ele>
        <time>2019-05-12T08:51:52Z</time>
      </trkpt>
      <trkpt lat="48.05685" lon="3.32583">
        <ele>172.277344</ele>
        <time>2019-05-12T08:51:58Z</time>
      </trkpt>
      <trkpt lat="48.05694" lon="3.32599">
        <ele>172.789062</ele>
        <time>2019-05-12T08:52:14Z</time>
      </trkpt>
      <trkpt lat="48.05706" lon="3.32622">
        <ele>173.332031</ele>
        <time>2019-05-12T08:52:31Z</time>
      </trkpt>
      <trkpt lat="48.05709" lon="3.32626">
        <ele>173.402344</ele>
        <time>2019-05-12T08:52:34Z</time>
      </trkpt>
      <trkpt lat="48.0572" lon="3.32643">
        <ele>173.554688</ele>
        <time>2019-05-12T08:52:47Z</time>
      </trkpt>
      <trkpt lat="48.05731" lon="3.32664">
        <ele>173.742188</ele>
        <time>2019-05-12T08:53:04Z</time>
      </trkpt>
      <trkpt lat="48.05743" lon="3.32683">
        <ele>173.863281</ele>
        <time>2019-05-12T08:53:22Z</time>
      </trkpt>
      <trkpt lat="48.05758" lon="3.32708">
        <ele>174.039062</ele>
        <time>2019-05-12T08:53:38Z</time>
      </trkpt>
      <trkpt lat="48.05771" lon="3.32728">
        <ele>174.175781</ele>
        <time>2019-05-12T08:53:52Z</time>
      </trkpt>
      <trkpt lat="48.0578" lon="3.32751">
        <ele>174.25</ele>
        <time>2019-05-12T08:54:08Z</time>
      </trkpt>
      <trkpt lat="48.05785" lon="3.32765">
        <ele>174.15625</ele>
        <time>2019-05-12T08:54:16Z</time>
      </trkpt>
      <trkpt lat="48.05796" lon="3.32794">
        <ele>173.914062</ele>
        <time>2019-05-12T08:54:35Z</time>
      </trkpt>
      <trkpt lat="48.058" lon="3.32809">
        <ele>173.667969</ele>
        <time>2019-05-12T08:54:44Z</time>
      </trkpt>
      <trkpt lat="48.05805" lon="3.32822">
        <ele>173.410156</ele>
        <time>2019-05-12T08:54:53Z</time>
      </trkpt>
      <trkpt lat="48.05806" lon="3.32823">
        <ele>173.351562</ele>
        <time>2019-05-12T08:55:00Z</time>
      </trkpt>
      <trkpt lat="48.05817" lon="3.32854">
        <ele>172.722656</ele>
        <time>2019-05-12T08:55:19Z</time>
      </trkpt>
      <trkpt lat="48.05821" lon="3.3286">
        <ele>172.5</ele>
        <time>2019-05-12T08:55:23Z</time>
      </trkpt>
      <trkpt lat="48.05826" lon="3.32868">
        <ele>172.179688</ele>
        <time>2019-05-12T08:55:25Z</time>
      </trkpt>
      <trkpt lat="48.05835" lon="3.32883">
        <ele>171.625</ele>
        <time>2019-05-12T08:55:40Z</time>
      </trkpt>
      <trkpt lat="48.05845" lon="3.32897">
        <ele>171.1875</ele>
        <time>2019-05-12T08:55:50Z</time>
      </trkpt>
      <trkpt lat="48.05861" lon="3.32922">
        <ele>170.199219</ele>
        <time>2019-05-12T08:56:09Z</time>
      </trkpt>
      <trkpt lat="48.05868" lon="3.32935">
        <ele>169.679688</ele>
        <time>2019-05-12T08:56:16Z</time>
      </trkpt>
      <trkpt lat="48.05875" lon="3.32949">
        <ele>169.238281</ele>
        <time>2019-05-12T08:56:26Z</time>
      </trkpt>
      <trkpt lat="48.05884" lon="3.32964">
        <ele>168.761719</ele>
        <time>2019-05-12T08:56:36Z</time>
      </trkpt>
      <trkpt lat="48.05887" lon="3.32968">
        <ele>168.636719</ele>
        <time>2019-05-12T08:56:38Z</time>
      </trkpt>
      <trkpt lat="48.05895" lon="3.32984">
        <ele>168.289062</ele>
        <time>2019-05-12T08:56:51Z</time>
      </trkpt>
      <trkpt lat="48.05905" lon="3.33001">
        <ele>168.003906</ele>
        <time>2019-05-12T08:57:03Z</time>
      </trkpt>
      <trkpt lat="48.05916" lon="3.33022">
        <ele>168.304688</ele>
        <time>2019-05-12T08:57:16Z</time>
      </trkpt>
      <trkpt lat="48.05926" lon="3.33039">
        <ele>169.289062</ele>
        <time>2019-05-12T08:57:29Z</time>
      </trkpt>
      <trkpt lat="48.05932" lon="3.33048">
        <ele>169.785156</ele>
        <time>2019-05-12T08:57:41Z</time>
      </trkpt>
      <trkpt lat="48.05934" lon="3.33052">
        <ele>169.96875</ele>
        <time>2019-05-12T08:57:50Z</time>
      </trkpt>
      <trkpt lat="48.05936" lon="3.33043">
        <ele>169.609375</ele>
        <time>2019-05-12T08:57:54Z</time>
      </trkpt>
      <trkpt lat="48.05939" lon="3.33021">
        <ele>168.671875</ele>
        <time>2019-05-12T08:58:08Z</time>
      </trkpt>
      <trkpt lat="48.05942" lon="3.33009">
        <ele>168.410156</ele>
        <time>2019-05-12T08:58:20Z</time>
      </trkpt>
      <trkpt lat="48.05945" lon="3.32998">
        <ele>168.179688</ele>
        <time>2019-05-12T08:58:30Z</time>
      </trkpt>
      <trkpt lat="48.05948" lon="3.32986">
        <ele>167.851562</ele>
        <time>2019-05-12T08:58:35Z</time>
      </trkpt>
      <trkpt lat="48.05953" lon="3.32968">
        <ele>167.261719</ele>
        <time>2019-05-12T08:58:48Z</time>
      </trkpt>
      <trkpt lat="48.05954" lon="3.32963">
        <ele>167.105469</ele>
        <time>2019-05-12T08:58:49Z</time>
      </trkpt>
      <trkpt lat="48.05958" lon="3.32949">
        <ele>166.785156</ele>
        <time>2019-05-12T08:59:00Z</time>
      </trkpt>
      <trkpt lat="48.05959" lon="3.32946">
        <ele>166.722656</ele>
        <time>2019-05-12T08:59:01Z</time>
      </trkpt>
      <trkpt lat="48.05962" lon="3.32934">
        <ele>166.5</ele>
        <time>2019-05-12T08:59:10Z</time>
      </trkpt>
      <trkpt lat="48.05965" lon="3.32926">
        <ele>166.378906</ele>
        <time>2019-05-12T08:59:14Z</time>
      </trkpt>
      <trkpt lat="48.05967" lon="3.3292">
        <ele>166.261719</ele>
        <time>2019-05-12T08:59:20Z</time>
      </trkpt>
      <trkpt lat="48.05972" lon="3.32911">
        <ele>166.070312</ele>
        <time>2019-05-12T08:59:24Z</time>
      </trkpt>
      <trkpt lat="48.05978" lon="3.32896">
        <ele>165.5625</ele>
        <time>2019-05-12T08:59:35Z</time>
      </trkpt>
      <trkpt lat="48.05984" lon="3.32883">
        <ele>165.101562</ele>
        <time>2019-05-12T08:59:45Z</time>
      </trkpt>
      <trkpt lat="48.05989" lon="3.32874">
        <ele>164.773438</ele>
        <time>2019-05-12T08:59:49Z</time>
      </trkpt>
      <trkpt lat="48.05993" lon="3.32864">
        <ele>164.410156</ele>
        <time>2019-05-12T08:59:59Z</time>
      </trkpt>
      <trkpt lat="48.05999" lon="3.32852">
        <ele>163.976562</ele>
        <time>2019-05-12T09:00:08Z</time>
      </trkpt>
      <trkpt lat="48.06003" lon="3.32844">
        <ele>163.761719</ele>
        <time>2019-05-12T09:00:13Z</time>
      </trkpt>
      <trkpt lat="48.06006" lon="3.32838">
        <ele>163.550781</ele>
        <time>2019-05-12T09:00:18Z</time>
      </trkpt>
      <trkpt lat="48.0601" lon="3.3283">
        <ele>163.261719</ele>
        <time>2019-05-12T09:00:27Z</time>
      </trkpt>
      <trkpt lat="48.06015" lon="3.32822">
        <ele>162.914062</ele>
        <time>2019-05-12T09:00:31Z</time>
      </trkpt>
      <trkpt lat="48.06023" lon="3.32805">
        <ele>162.183594</ele>
        <time>2019-05-12T09:00:43Z</time>
      </trkpt>
      <trkpt lat="48.06033" lon="3.32788">
        <ele>161.375</ele>
        <time>2019-05-12T09:00:56Z</time>
      </trkpt>
      <trkpt lat="48.06038" lon="3.32779">
        <ele>160.949219</ele>
        <time>2019-05-12T09:01:04Z</time>
      </trkpt>
      <trkpt lat="48.06049" lon="3.32757">
        <ele>159.953125</ele>
        <time>2019-05-12T09:01:19Z</time>
      </trkpt>
      <trkpt lat="48.06053" lon="3.32749">
        <ele>159.617188</ele>
        <time>2019-05-12T09:01:33Z</time>
      </trkpt>
      <trkpt lat="48.06056" lon="3.32741">
        <ele>159.265625</ele>
        <time>2019-05-12T09:01:45Z</time>
      </trkpt>
      <trkpt lat="48.06071" lon="3.32719">
        <ele>158.210938</ele>
        <time>2019-05-12T09:02:00Z</time>
      </trkpt>
      <trkpt lat="48.06081" lon="3.32706">
        <ele>157.421875</ele>
        <time>2019-05-12T09:02:13Z</time>
      </trkpt>
      <trkpt lat="48.06093" lon="3.32694">
        <ele>156.773438</ele>
        <time>2019-05-12T09:02:28Z</time>
      </trkpt>
      <trkpt lat="48.06111" lon="3.32682">
        <ele>156.304688</ele>
        <time>2019-05-12T09:02:42Z</time>
      </trkpt>
      <trkpt lat="48.06135" lon="3.32668">
        <ele>156.046875</ele>
        <time>2019-05-12T09:02:57Z</time>
      </trkpt>
      <trkpt lat="48.06142" lon="3.3266">
        <ele>156.125</ele>
        <time>2019-05-12T09:02:58Z</time>
      </trkpt>
      <trkpt lat="48.06147" lon="3.32647">
        <ele>156.25</ele>
        <time>2019-05-12T09:03:15Z</time>
      </trkpt>
      <trkpt lat="48.06153" lon="3.32637">
        <ele>156.410156</ele>
        <time>2019-05-12T09:03:29Z</time>
      </trkpt>
      <trkpt lat="48.06166" lon="3.32615">
        <ele>156.902344</ele>
        <time>2019-05-12T09:03:39Z</time>
      </trkpt>
      <trkpt lat="48.0617" lon="3.32592">
        <ele>157.308594</ele>
        <time>2019-05-12T09:03:50Z</time>
      </trkpt>
      <trkpt lat="48.0617" lon="3.32579">
        <ele>157.480469</ele>
        <time>2019-05-12T09:04:02Z</time>
      </trkpt>
      <trkpt lat="48.06164" lon="3.32562">
        <ele>157.699219</ele>
        <time>2019-05-12T09:04:10Z</time>
      </trkpt>
      <trkpt lat="48.06156" lon="3.3255">
        <ele>157.722656</ele>
        <time>2019-05-12T09:04:12Z</time>
      </trkpt>
      <trkpt lat="48.06148" lon="3.32535">
        <ele>157.757812</ele>
        <time>2019-05-12T09:04:19Z</time>
      </trkpt>
      <trkpt lat="48.06143" lon="3.32527">
        <ele>157.691406</ele>
        <time>2019-05-12T09:04:30Z</time>
      </trkpt>
      <trkpt lat="48.06139" lon="3.3252">
        <ele>157.605469</ele>
        <time>2019-05-12T09:04:33Z</time>
      </trkpt>
      <trkpt lat="48.06135" lon="3.32514">
        <ele>157.511719</ele>
        <time>2019-05-12T09:04:37Z</time>
      </trkpt>
      <trkpt lat="48.0613" lon="3.32507">
        <ele>157.394531</ele>
        <time>2019-05-12T09:04:38Z</time>
      </trkpt>
      <trkpt lat="48.06127" lon="3.32503">
        <ele>157.285156</ele>
        <time>2019-05-12T09:04:39Z</time>
      </trkpt>
      <trkpt lat="48.06124" lon="3.32499">
        <ele>157.238281</ele>
        <time>2019-05-12T09:04:43Z</time>
      </trkpt>
      <trkpt lat="48.06119" lon="3.32492">
        <ele>157.074219</ele>
        <time>2019-05-12T09:04:44Z</time>
      </trkpt>
      <trkpt lat="48.06113" lon="3.32475">
        <ele>156.738281</ele>
        <time>2019-05-12T09:05:16Z</time>
      </trkpt>
      <trkpt lat="48.0611" lon="3.32466">
        <ele>156.4375</ele>
        <time>2019-05-12T09:05:26Z</time>
      </trkpt>
      <trkpt lat="48.06107" lon="3.32455">
        <ele>156.015625</ele>
        <time>2019-05-12T09:05:27Z</time>
      </trkpt>
      <trkpt lat="48.06103" lon="3.32444">
        <ele>155.511719</ele>
        <time>2019-05-12T09:05:35Z</time>
      </trkpt>
      <trkpt lat="48.06101" lon="3.32437">
        <ele>155.195312</ele>
        <time>2019-05-12T09:05:36Z</time>
      </trkpt>
      <trkpt lat="48.06099" lon="3.32429">
        <ele>154.835938</ele>
        <time>2019-05-12T09:05:37Z</time>
      </trkpt>
      <trkpt lat="48.06096" lon="3.3242">
        <ele>154.308594</ele>
        <time>2019-05-12T09:05:48Z</time>
      </trkpt>
      <trkpt lat="48.06094" lon="3.32413">
        <ele>153.878906</ele>
        <time>2019-05-12T09:05:51Z</time>
      </trkpt>
      <trkpt lat="48.06092" lon="3.32408">
        <ele>153.566406</ele>
        <time>2019-05-12T09:05:52Z</time>
      </trkpt>
      <trkpt lat="48.06091" lon="3.324">
        <ele>153.296875</ele>
        <time>2019-05-12T09:05:53Z</time>
      </trkpt>
      <trkpt lat="48.06089" lon="3.32392">
        <ele>152.925781</ele>
        <time>2019-05-12T09:06:03Z</time>
      </trkpt>
      <trkpt lat="48.06087" lon="3.32386">
        <ele>152.652344</ele>
        <time>2019-05-12T09:06:14Z</time>
      </trkpt>
      <trkpt lat="48.06087" lon="3.32378">
        <ele>152.476562</ele>
        <time>2019-05-12T09:06:16Z</time>
      </trkpt>
      <trkpt lat="48.06085" lon="3.32363">
        <ele>152.019531</ele>
        <time>2019-05-12T09:06:26Z</time>
      </trkpt>
      <trkpt lat="48.06085" lon="3.32354">
        <ele>151.949219</ele>
        <time>2019-05-12T09:06:32Z</time>
      </trkpt>
      <trkpt lat="48.06085" lon="3.32341">
        <ele>151.699219</ele>
        <time>2019-05-12T09:06:35Z</time>
      </trkpt>
      <trkpt lat="48.06085" lon="3.32334">
        <ele>151.617188</ele>
        <time>2019-05-12T09:06:36Z</time>
      </trkpt>
      <trkpt lat="48.06086" lon="3.32328">
        <ele>151.570312</ele>
        <time>2019-05-12T09:06:43Z</time>
      </trkpt>
      <trkpt lat="48.06086" lon="3.32321">
        <ele>151.484375</ele>
        <time>2019-05-12T09:06:44Z</time>
      </trkpt>
      <trkpt lat="48.06087" lon="3.32314">
        <ele>151.46875</ele>
        <time>2019-05-12T09:06:45Z</time>
      </trkpt>
      <trkpt lat="48.06087" lon="3.32308">
        <ele>151.460938</ele>
        <time>2019-05-12T09:06:46Z</time>
      </trkpt>
      <trkpt lat="48.06088" lon="3.32299">
        <ele>151.363281</ele>
        <time>2019-05-12T09:06:59Z</time>
      </trkpt>
      <trkpt lat="48.06088" lon="3.32292">
        <ele>151.375</ele>
        <time>2019-05-12T09:07:10Z</time>
      </trkpt>
      <trkpt lat="48.06088" lon="3.32286">
        <ele>151.34375</ele>
        <time>2019-05-12T09:07:30Z</time>
      </trkpt>
      <trkpt lat="48.06088" lon="3.32277">
        <ele>151.300781</ele>
        <time>2019-05-12T09:07:45Z</time>
      </trkpt>
      <trkpt lat="48.06086" lon="3.32267">
        <ele>150.863281</ele>
        <time>2019-05-12T09:08:01Z</time>
      </trkpt>
      <trkpt lat="48.06083" lon="3.32264">
        <ele>150.511719</ele>
        <time>2019-05-12T09:08:14Z</time>
      </trkpt>
      <trkpt lat="48.06081" lon="3.3226">
        <ele>150.214844</ele>
        <time>2019-05-12T09:08:29Z</time>
      </trkpt>
      <trkpt lat="48.06079" lon="3.32258">
        <ele>149.972656</ele>
        <time>2019-05-12T09:08:42Z</time>
      </trkpt>
      <trkpt lat="48.06076" lon="3.32254">
        <ele>149.585938</ele>
        <time>2019-05-12T09:08:54Z</time>
      </trkpt>
      <trkpt lat="48.06073" lon="3.32249">
        <ele>149.191406</ele>
        <time>2019-05-12T09:09:10Z</time>
      </trkpt>
      <trkpt lat="48.06067" lon="3.32237">
        <ele>148.945312</ele>
        <time>2019-05-12T09:11:34Z</time>
      </trkpt>
      <trkpt lat="48.06064" lon="3.32231">
        <ele>149.046875</ele>
        <time>2019-05-12T09:11:35Z</time>
      </trkpt>
      <trkpt lat="48.06062" lon="3.32226">
        <ele>149.105469</ele>
        <time>2019-05-12T09:11:36Z</time>
      </trkpt>
      <trkpt lat="48.06058" lon="3.32215">
        <ele>149.160156</ele>
        <time>2019-05-12T09:11:41Z</time>
      </trkpt>
      <trkpt lat="48.06056" lon="3.32206">
        <ele>149.121094</ele>
        <time>2019-05-12T09:11:42Z</time>
      </trkpt>
      <trkpt lat="48.06053" lon="3.322">
        <ele>148.960938</ele>
        <time>2019-05-12T09:11:48Z</time>
      </trkpt>
      <trkpt lat="48.06048" lon="3.32191">
        <ele>148.550781</ele>
        <time>2019-05-12T09:12:12Z</time>
      </trkpt>
      <trkpt lat="48.06044" lon="3.32181">
        <ele>148.367188</ele>
        <time>2019-05-12T09:12:25Z</time>
      </trkpt>
      <trkpt lat="48.06041" lon="3.32176">
        <ele>148.5</ele>
        <time>2019-05-12T09:12:30Z</time>
      </trkpt>
      <trkpt lat="48.0604" lon="3.32174">
        <ele>148.460938</ele>
        <time>2019-05-12T09:12:31Z</time>
      </trkpt>
      <trkpt lat="48.06039" lon="3.32172">
        <ele>148.449219</ele>
        <time>2019-05-12T09:12:32Z</time>
      </trkpt>
      <trkpt lat="48.06033" lon="3.32164">
        <ele>148.117188</ele>
        <time>2019-05-12T09:12:42Z</time>
      </trkpt>
      <trkpt lat="48.0603" lon="3.32161">
        <ele>147.945312</ele>
        <time>2019-05-12T09:12:46Z</time>
      </trkpt>
      <trkpt lat="48.06028" lon="3.32158">
        <ele>147.90625</ele>
        <time>2019-05-12T09:12:47Z</time>
      </trkpt>
      <trkpt lat="48.06025" lon="3.32154">
        <ele>147.761719</ele>
        <time>2019-05-12T09:12:48Z</time>
      </trkpt>
      <trkpt lat="48.06019" lon="3.32145">
        <ele>147.355469</ele>
        <time>2019-05-12T09:12:54Z</time>
      </trkpt>
      <trkpt lat="48.0601" lon="3.32139">
        <ele>146.570312</ele>
        <time>2019-05-12T09:13:06Z</time>
      </trkpt>
      <trkpt lat="48.05994" lon="3.32128">
        <ele>144.8125</ele>
        <time>2019-05-12T09:13:17Z</time>
      </trkpt>
      <trkpt lat="48.05983" lon="3.32124">
        <ele>143.445312</ele>
        <time>2019-05-12T09:13:27Z</time>
      </trkpt>
      <trkpt lat="48.05969" lon="3.32117">
        <ele>141.800781</ele>
        <time>2019-05-12T09:13:28Z</time>
      </trkpt>
      <trkpt lat="48.0596" lon="3.32107">
        <ele>141.460938</ele>
        <time>2019-05-12T09:13:36Z</time>
      </trkpt>
      <trkpt lat="48.05948" lon="3.32094">
        <ele>141.554688</ele>
        <time>2019-05-12T09:13:38Z</time>
      </trkpt>
      <trkpt lat="48.0594" lon="3.32084">
        <ele>141.203125</ele>
        <time>2019-05-12T09:13:39Z</time>
      </trkpt>
      <trkpt lat="48.05925" lon="3.32066">
        <ele>140.511719</ele>
        <time>2019-05-12T09:14:49Z</time>
      </trkpt>
      <trkpt lat="48.05912" lon="3.32044">
        <ele>141.101562</ele>
        <time>2019-05-12T09:15:00Z</time>
      </trkpt>
      <trkpt lat="48.05907" lon="3.32038">
        <ele>141.039062</ele>
        <time>2019-05-12T09:15:08Z</time>
      </trkpt>
      <trkpt lat="48.05898" lon="3.32025">
        <ele>141.082031</ele>
        <time>2019-05-12T09:15:11Z</time>
      </trkpt>
      <trkpt lat="48.05884" lon="3.32016">
        <ele>139.484375</ele>
        <time>2019-05-12T09:15:12Z</time>
      </trkpt>
      <trkpt lat="48.0587" lon="3.3201">
        <ele>137.863281</ele>
        <time>2019-05-12T09:15:13Z</time>
      </trkpt>
      <trkpt lat="48.05851" lon="3.32014">
        <ele>133.328125</ele>
        <time>2019-05-12T09:15:22Z</time>
      </trkpt>
      <trkpt lat="48.05837" lon="3.32022">
        <ele>131.160156</ele>
        <time>2019-05-12T09:15:26Z</time>
      </trkpt>
      <trkpt lat="48.05823" lon="3.32031">
        <ele>130.507812</ele>
        <time>2019-05-12T09:15:54Z</time>
      </trkpt>
      <trkpt lat="48.05813" lon="3.32035">
        <ele>129.917969</ele>
        <time>2019-05-12T09:16:06Z</time>
      </trkpt>
      <trkpt lat="48.05811" lon="3.32036">
        <ele>129.8125</ele>
        <time>2019-05-12T09:16:08Z</time>
      </trkpt>
      <trkpt lat="48.0581" lon="3.32036">
        <ele>129.714844</ele>
        <time>2019-05-12T09:16:09Z</time>
      </trkpt>
      <trkpt lat="48.05806" lon="3.32037">
        <ele>129.496094</ele>
        <time>2019-05-12T09:16:10Z</time>
      </trkpt>
      <trkpt lat="48.05796" lon="3.3204">
        <ele>128.894531</ele>
        <time>2019-05-12T09:16:23Z</time>
      </trkpt>
      <trkpt lat="48.05788" lon="3.32042">
        <ele>128.59375</ele>
        <time>2019-05-12T09:16:34Z</time>
      </trkpt>
      <trkpt lat="48.05778" lon="3.32046">
        <ele>128.28125</ele>
        <time>2019-05-12T09:16:48Z</time>
      </trkpt>
      <trkpt lat="48.05762" lon="3.32052">
        <ele>127.480469</ele>
        <time>2019-05-12T09:17:03Z</time>
      </trkpt>
      <trkpt lat="48.05754" lon="3.32054">
        <ele>127.019531</ele>
        <time>2019-05-12T09:17:10Z</time>
      </trkpt>
      <trkpt lat="48.05742" lon="3.32059">
        <ele>126.109375</ele>
        <time>2019-05-12T09:17:18Z</time>
      </trkpt>
      <trkpt lat="48.05724" lon="3.32065">
        <ele>124.917969</ele>
        <time>2019-05-12T09:17:32Z</time>
      </trkpt>
      <trkpt lat="48.05712" lon="3.3207">
        <ele>123.976562</ele>
        <time>2019-05-12T09:17:45Z</time>
      </trkpt>
      <trkpt lat="48.05696" lon="3.32076">
        <ele>122.746094</ele>
        <time>2019-05-12T09:17:58Z</time>
      </trkpt>
      <trkpt lat="48.05686" lon="3.32081">
        <ele>122.511719</ele>
        <time>2019-05-12T09:18:09Z</time>
      </trkpt>
      <trkpt lat="48.05675" lon="3.32086">
        <ele>122.1875</ele>
        <time>2019-05-12T09:18:23Z</time>
      </trkpt>
      <trkpt lat="48.05661" lon="3.3209">
        <ele>121.777344</ele>
        <time>2019-05-12T09:18:37Z</time>
      </trkpt>
      <trkpt lat="48.05647" lon="3.32087">
        <ele>121.070312</ele>
        <time>2019-05-12T09:18:55Z</time>
      </trkpt>
      <trkpt lat="48.05625" lon="3.3207">
        <ele>120.339844</ele>
        <time>2019-05-12T09:19:07Z</time>
      </trkpt>
      <trkpt lat="48.05616" lon="3.32062">
        <ele>120.511719</ele>
        <time>2019-05-12T09:19:08Z</time>
      </trkpt>
      <trkpt lat="48.05598" lon="3.32047">
        <ele>120.710938</ele>
        <time>2019-05-12T09:19:24Z</time>
      </trkpt>
      <trkpt lat="48.0558" lon="3.3204">
        <ele>120.023438</ele>
        <time>2019-05-12T09:19:39Z</time>
      </trkpt>
      <trkpt lat="48.05552" lon="3.32032">
        <ele>119.078125</ele>
        <time>2019-05-12T09:19:53Z</time>
      </trkpt>
      <trkpt lat="48.05512" lon="3.32028">
        <ele>117.09375</ele>
        <time>2019-05-12T09:20:02Z</time>
      </trkpt>
      <trkpt lat="48.05502" lon="3.32034">
        <ele>116.183594</ele>
        <time>2019-05-12T09:20:48Z</time>
      </trkpt>
      <trkpt lat="48.05486" lon="3.32042">
        <ele>114.859375</ele>
        <time>2019-05-12T09:21:11Z</time>
      </trkpt>
      <trkpt lat="48.05476" lon="3.32042">
        <ele>114.355469</ele>
        <time>2019-05-12T09:21:20Z</time>
      </trkpt>
      <trkpt lat="48.05457" lon="3.32042">
        <ele>113.460938</ele>
        <time>2019-05-12T09:21:34Z</time>
      </trkpt>
      <trkpt lat="48.05443" lon="3.32043">
        <ele>113.003906</ele>
        <time>2019-05-12T09:21:36Z</time>
      </trkpt>
      <trkpt lat="48.05438" lon="3.3204">
        <ele>112.84375</ele>
        <time>2019-05-12T09:21:49Z</time>
      </trkpt>
      <trkpt lat="48.05425" lon="3.32033">
        <ele>112.28125</ele>
        <time>2019-05-12T09:22:01Z</time>
      </trkpt>
      <trkpt lat="48.05408" lon="3.32025">
        <ele>111.332031</ele>
        <time>2019-05-12T09:22:14Z</time>
      </trkpt>
      <trkpt lat="48.054" lon="3.3202">
        <ele>110.722656</ele>
        <time>2019-05-12T09:22:24Z</time>
      </trkpt>
      <trkpt lat="48.05395" lon="3.32016">
        <ele>110.910156</ele>
        <time>2019-05-12T09:22:26Z</time>
      </trkpt>
      <trkpt lat="48.05385" lon="3.3201">
        <ele>111.109375</ele>
        <time>2019-05-12T09:22:39Z</time>
      </trkpt>
      <trkpt lat="48.05378" lon="3.32006">
        <ele>111.148438</ele>
        <time>2019-05-12T09:22:43Z</time>
      </trkpt>
      <trkpt lat="48.05365" lon="3.31999">
        <ele>110.917969</ele>
        <time>2019-05-12T09:22:58Z</time>
      </trkpt>
      <trkpt lat="48.05363" lon="3.31997">
        <ele>110.835938</ele>
        <time>2019-05-12T09:22:59Z</time>
      </trkpt>
      <trkpt lat="48.05355" lon="3.31992">
        <ele>110.554688</ele>
        <time>2019-05-12T09:23:06Z</time>
      </trkpt>
      <trkpt lat="48.05347" lon="3.31987">
        <ele>110.113281</ele>
        <time>2019-05-12T09:23:11Z</time>
      </trkpt>
      <trkpt lat="48.05331" lon="3.31976">
        <ele>109.148438</ele>
        <time>2019-05-12T09:23:26Z</time>
      </trkpt>
      <trkpt lat="48.05324" lon="3.31971">
        <ele>108.5625</ele>
        <time>2019-05-12T09:23:34Z</time>
      </trkpt>
      <trkpt lat="48.05316" lon="3.31964">
        <ele>107.765625</ele>
        <time>2019-05-12T09:23:41Z</time>
      </trkpt>
      <trkpt lat="48.05312" lon="3.31961">
        <ele>107.632812</ele>
        <time>2019-05-12T09:23:43Z</time>
      </trkpt>
      <trkpt lat="48.05304" lon="3.31959">
        <ele>106.773438</ele>
        <time>2019-05-12T09:23:58Z</time>
      </trkpt>
      <trkpt lat="48.05297" lon="3.31956">
        <ele>106.125</ele>
        <time>2019-05-12T09:24:01Z</time>
      </trkpt>
      <trkpt lat="48.05292" lon="3.31955">
        <ele>105.683594</ele>
        <time>2019-05-12T09:24:04Z</time>
      </trkpt>
      <trkpt lat="48.05283" lon="3.31951">
        <ele>105.136719</ele>
        <time>2019-05-12T09:24:13Z</time>
      </trkpt>
      <trkpt lat="48.05273" lon="3.31943">
        <ele>104.457031</ele>
        <time>2019-05-12T09:24:26Z</time>
      </trkpt>
      <trkpt lat="48.05258" lon="3.31931">
        <ele>103.015625</ele>
        <time>2019-05-12T09:24:37Z</time>
      </trkpt>
      <trkpt lat="48.05236" lon="3.31913">
        <ele>99.917969</ele>
        <time>2019-05-12T09:24:51Z</time>
      </trkpt>
      <trkpt lat="48.05238" lon="3.31925">
        <ele>100.21875</ele>
        <time>2019-05-12T09:25:07Z</time>
      </trkpt>
      <trkpt lat="48.05237" lon="3.31937">
        <ele>100.449219</ele>
        <time>2019-05-12T09:25:11Z</time>
      </trkpt>
      <trkpt lat="48.05236" lon="3.31941">
        <ele>100.496094</ele>
        <time>2019-05-12T09:25:14Z</time>
      </trkpt>
      <trkpt lat="48.05233" lon="3.31951">
        <ele>100.667969</ele>
        <time>2019-05-12T09:25:26Z</time>
      </trkpt>
      <trkpt lat="48.05231" lon="3.31961">
        <ele>100.914062</ele>
        <time>2019-05-12T09:25:38Z</time>
      </trkpt>
      <trkpt lat="48.05228" lon="3.31971">
        <ele>101.761719</ele>
        <time>2019-05-12T09:25:49Z</time>
      </trkpt>
      <trkpt lat="48.05226" lon="3.31978">
        <ele>102.585938</ele>
        <time>2019-05-12T09:26:52Z</time>
      </trkpt>
      <trkpt lat="48.05224" lon="3.31986">
        <ele>103.492188</ele>
        <time>2019-05-12T09:26:56Z</time>
      </trkpt>
      <trkpt lat="48.05222" lon="3.31993">
        <ele>104.414062</ele>
        <time>2019-05-12T09:27:02Z</time>
      </trkpt>
      <trkpt lat="48.0522" lon="3.32001">
        <ele>105.402344</ele>
        <time>2019-05-12T09:27:11Z</time>
      </trkpt>
      <trkpt lat="48.05218" lon="3.32007">
        <ele>106.140625</ele>
        <time>2019-05-12T09:27:21Z</time>
      </trkpt>
      <trkpt lat="48.05216" lon="3.3201">
        <ele>106.632812</ele>
        <time>2019-05-12T09:27:22Z</time>
      </trkpt>
      <trkpt lat="48.05214" lon="3.32014">
        <ele>107.191406</ele>
        <time>2019-05-12T09:27:26Z</time>
      </trkpt>
      <trkpt lat="48.05211" lon="3.32016">
        <ele>107.542969</ele>
        <time>2019-05-12T09:27:31Z</time>
      </trkpt>
      <trkpt lat="48.05201" lon="3.3202">
        <ele>108.398438</ele>
        <time>2019-05-12T09:27:42Z</time>
      </trkpt>
      <trkpt lat="48.05192" lon="3.32021">
        <ele>108.859375</ele>
        <time>2019-05-12T09:27:52Z</time>
      </trkpt>
      <trkpt lat="48.05188" lon="3.32018">
        <ele>108.574219</ele>
        <time>2019-05-12T09:27:57Z</time>
      </trkpt>
      <trkpt lat="48.05181" lon="3.32016">
        <ele>108.519531</ele>
        <time>2019-05-12T09:28:03Z</time>
      </trkpt>
      <trkpt lat="48.05179" lon="3.32016">
        <ele>108.660156</ele>
        <time>2019-05-12T09:28:05Z</time>
      </trkpt>
      <trkpt lat="48.05174" lon="3.32013">
        <ele>108.660156</ele>
        <time>2019-05-12T09:28:10Z</time>
      </trkpt>
      <trkpt lat="48.05162" lon="3.32006">
        <ele>108.425781</ele>
        <time>2019-05-12T09:28:21Z</time>
      </trkpt>
      <trkpt lat="48.05161" lon="3.32006">
        <ele>108.460938</ele>
        <time>2019-05-12T09:28:22Z</time>
      </trkpt>
      <trkpt lat="48.05145" lon="3.32005">
        <ele>109.484375</ele>
        <time>2019-05-12T09:28:34Z</time>
      </trkpt>
      <trkpt lat="48.05135" lon="3.32007">
        <ele>110.375</ele>
        <time>2019-05-12T09:28:45Z</time>
      </trkpt>
      <trkpt lat="48.05126" lon="3.32006">
        <ele>110.890625</ele>
        <time>2019-05-12T09:28:55Z</time>
      </trkpt>
      <trkpt lat="48.05116" lon="3.32006">
        <ele>111.5</ele>
        <time>2019-05-12T09:29:06Z</time>
      </trkpt>
      <trkpt lat="48.0511" lon="3.32006">
        <ele>111.796875</ele>
        <time>2019-05-12T09:29:19Z</time>
      </trkpt>
      <trkpt lat="48.05105" lon="3.32002">
        <ele>111.492188</ele>
        <time>2019-05-12T09:29:34Z</time>
      </trkpt>
      <trkpt lat="48.05092" lon="3.31993">
        <ele>110.863281</ele>
        <time>2019-05-12T09:31:23Z</time>
      </trkpt>
      <trkpt lat="48.05088" lon="3.3199">
        <ele>110.675781</ele>
        <time>2019-05-12T09:31:26Z</time>
      </trkpt>
      <trkpt lat="48.05084" lon="3.31986">
        <ele>110.371094</ele>
        <time>2019-05-12T09:31:40Z</time>
      </trkpt>
      <trkpt lat="48.05083" lon="3.31986">
        <ele>110.355469</ele>
        <time>2019-05-12T09:32:15Z</time>
      </trkpt>
      <trkpt lat="48.0508" lon="3.31983">
        <ele>110.183594</ele>
        <time>2019-05-12T09:32:26Z</time>
      </trkpt>
      <trkpt lat="48.05073" lon="3.31977">
        <ele>109.835938</ele>
        <time>2019-05-12T09:32:42Z</time>
      </trkpt>
      <trkpt lat="48.0507" lon="3.31976">
        <ele>109.582031</ele>
        <time>2019-05-12T09:32:54Z</time>
      </trkpt>
      <trkpt lat="48.05066" lon="3.31978">
        <ele>109.707031</ele>
        <time>2019-05-12T09:32:55Z</time>
      </trkpt>
      <trkpt lat="48.05066" lon="3.31972">
        <ele>108.894531</ele>
        <time>2019-05-12T09:33:12Z</time>
      </trkpt>
      <trkpt lat="48.05044" lon="3.31946">
        <ele>105.167969</ele>
        <time>2019-05-12T09:33:24Z</time>
      </trkpt>
      <trkpt lat="48.05044" lon="3.31932">
        <ele>103.453125</ele>
        <time>2019-05-12T09:33:38Z</time>
      </trkpt>
      <trkpt lat="48.05046" lon="3.31919">
        <ele>101.699219</ele>
        <time>2019-05-12T09:33:40Z</time>
      </trkpt>
      <trkpt lat="48.05049" lon="3.31903">
        <ele>99.785156</ele>
        <time>2019-05-12T09:33:57Z</time>
      </trkpt>
      <trkpt lat="48.05053" lon="3.31886">
        <ele>97.777344</ele>
        <time>2019-05-12T09:34:08Z</time>
      </trkpt>
      <trkpt lat="48.05053" lon="3.31881">
        <ele>97.230469</ele>
        <time>2019-05-12T09:34:31Z</time>
      </trkpt>
      <trkpt lat="48.0505" lon="3.31876">
        <ele>96.742188</ele>
        <time>2019-05-12T09:34:56Z</time>
      </trkpt>
      <trkpt lat="48.05027" lon="3.31856">
        <ele>95.6875</ele>
        <time>2019-05-12T09:35:12Z</time>
      </trkpt>
      <trkpt lat="48.05024" lon="3.31852">
        <ele>95.429688</ele>
        <time>2019-05-12T09:35:32Z</time>
      </trkpt>
      <trkpt lat="48.05013" lon="3.31844">
        <ele>95.035156</ele>
        <time>2019-05-12T09:35:56Z</time>
      </trkpt>
      <trkpt lat="48.04991" lon="3.31825">
        <ele>93.386719</ele>
        <time>2019-05-12T09:36:17Z</time>
      </trkpt>
      <trkpt lat="48.04984" lon="3.3182">
        <ele>93.125</ele>
        <time>2019-05-12T09:36:39Z</time>
      </trkpt>
      <trkpt lat="48.0498" lon="3.31827">
        <ele>93.746094</ele>
        <time>2019-05-12T09:37:00Z</time>
      </trkpt>
      <trkpt lat="48.0498" lon="3.3183">
        <ele>94.042969</ele>
      </trkpt>
      <trkpt lat="48.04976" lon="3.3184">
        <ele>94.917969</ele>
      </trkpt>
      <trkpt lat="48.04972" lon="3.3186">
        <ele>96.390625</ele>
      </trkpt>
      <trkpt lat="48.04962" lon="3.31892">
        <ele>98.097656</ele>
      </trkpt>
      <trkpt lat="48.04955" lon="3.3192">
        <ele>98.824219</ele>
      </trkpt>
      <trkpt lat="48.04951" lon="3.31937">
        <ele>98.980469</ele>
      </trkpt>
      <trkpt lat="48.04944" lon="3.3196">
        <ele>99.046875</ele>
      </trkpt>
      <trkpt lat="48.04929" lon="3.31953">
        <ele>97.199219</ele>
      </trkpt>
      <trkpt lat="48.04925" lon="3.31952">
        <ele>96.804688</ele>
      </trkpt>
      <trkpt lat="48.04888" lon="3.31947">
        <ele>93.222656</ele>
      </trkpt>
      <trkpt lat="48.04874" lon="3.31943">
        <ele>91.933594</ele>
      </trkpt>
      <trkpt lat="48.04861" lon="3.3194">
        <ele>90.851562</ele>
      </trkpt>
      <trkpt lat="48.04838" lon="3.31934">
        <ele>89.460938</ele>
      </trkpt>
      <trkpt lat="48.04819" lon="3.31928">
        <ele>88.667969</ele>
        <time>2019-05-12T09:38:03Z</time>
      </trkpt>
      <trkpt lat="48.04807" lon="3.31925">
        <ele>88.214844</ele>
        <time>2019-05-12T09:38:22Z</time>
      </trkpt>
      <trkpt lat="48.04786" lon="3.3192">
        <ele>86.914062</ele>
        <time>2019-05-12T09:38:44Z</time>
      </trkpt>
      <trkpt lat="48.04771" lon="3.31918">
        <ele>85.347656</ele>
        <time>2019-05-12T09:39:01Z</time>
      </trkpt>
      <trkpt lat="48.0477" lon="3.31936">
        <ele>85.019531</ele>
        <time>2019-05-12T09:39:23Z</time>
      </trkpt>
      <trkpt lat="48.0477" lon="3.31969">
        <ele>84.753906</ele>
        <time>2019-05-12T09:39:44Z</time>
      </trkpt>
      <trkpt lat="48.04722" lon="3.31985">
        <ele>80.59375</ele>
        <time>2019-05-12T09:40:04Z</time>
      </trkpt>
      <trkpt lat="48.04684" lon="3.31999">
        <ele>77.648438</ele>
        <time>2019-05-12T09:40:28Z</time>
      </trkpt>
      <trkpt lat="48.04673" lon="3.31959">
        <ele>76.429688</ele>
        <time>2019-05-12T09:40:47Z</time>
      </trkpt>
      <trkpt lat="48.04664" lon="3.31946">
        <ele>75.84375</ele>
        <time>2019-05-12T09:41:07Z</time>
      </trkpt>
      <trkpt lat="48.04656" lon="3.31964">
        <ele>75.5</ele>
        <time>2019-05-12T09:41:08Z</time>
      </trkpt>
      <trkpt lat="48.04645" lon="3.31986">
        <ele>75.308594</ele>
        <time>2019-05-12T09:41:26Z</time>
      </trkpt>
      <trkpt lat="48.04624" lon="3.32028">
        <ele>74.847656</ele>
        <time>2019-05-12T09:41:47Z</time>
      </trkpt>
      <trkpt lat="48.04617" lon="3.32018">
        <ele>74.585938</ele>
        <time>2019-05-12T09:42:06Z</time>
      </trkpt>
      <trkpt lat="48.04597" lon="3.31999">
        <ele>73.714844</ele>
        <time>2019-05-12T09:42:22Z</time>
      </trkpt>
      <trkpt lat="48.04579" lon="3.31968">
        <ele>73.132812</ele>
        <time>2019-05-12T09:42:32Z</time>
      </trkpt>
      <trkpt lat="48.04576" lon="3.31973">
        <ele>73.0625</ele>
        <time>2019-05-12T09:42:47Z</time>
      </trkpt>
      <trkpt lat="48.04566" lon="3.31983">
        <ele>73</ele>
        <time>2019-05-12T09:43:04Z</time>
      </trkpt>
      <trkpt lat="48.04557" lon="3.31992">
        <ele>73</ele>
        <time>2019-05-12T09:43:51Z</time>
      </trkpt>
      <trkpt lat="48.04542" lon="3.32009">
        <ele>73</ele>
        <time>2019-05-12T09:44:08Z</time>
      </trkpt>
      <trkpt lat="48.04538" lon="3.32011">
        <ele>73</ele>
        <time>2019-05-12T09:44:15Z</time>
      </trkpt>
      <trkpt lat="48.0453" lon="3.3205">
        <ele>74.6</ele>
      </trkpt>
    </trkseg>
  </trk>
</gpx>